Time,TemperatureF,DewpointF,PressureIn,WindDirection,WindDirectionDegrees,WindSpeedMPH,WindSpeedGustMPH,Humidity,HourlyPrecipIn,Conditions,Clouds,dailyrainin,SoftwareType,DateUTC
2013-04-28 00:02:00,57.2,48.6,27.26,SSE,147,4.0,4.0,73,0.00,,---,0.00,VWS V14.01,2013-04-28 05:02:00,
2013-04-28 00:03:00,57.2,48.6,27.26,SSE,147,2.7,2.7,73,0.00,,---,0.00,VWS V14.01,2013-04-28 05:03:00,
2013-04-28 00:04:00,57.2,49.0,27.26,SSE,147,2.7,2.7,74,0.00,,---,0.00,VWS V14.01,2013-04-28 05:04:00,
2013-04-28 00:07:00,57.2,49.0,27.26,SSE,147,2.7,2.7,74,0.00,,---,0.00,VWS V14.01,2013-04-28 05:07:00,
2013-04-28 00:08:00,57.2,49.0,27.26,SE,144,2.7,2.7,74,0.00,,---,0.00,VWS V14.01,2013-04-28 05:08:00,
2013-04-28 00:09:00,57.2,49.0,27.26,SE,144,2.7,2.7,74,0.00,,---,0.00,VWS V14.01,2013-04-28 05:09:00,
2013-04-28 00:12:00,57.2,49.0,27.23,SSE,152,4.0,4.0,74,0.00,,---,0.00,VWS V14.01,2013-04-28 05:12:00,
2013-04-28 00:13:00,57.2,49.0,27.23,SSE,152,4.0,4.0,74,0.00,,---,0.00,VWS V14.01,2013-04-28 05:13:00,
2013-04-28 00:14:00,57.2,49.0,27.23,SSE,152,4.0,4.0,74,0.00,,---,0.00,VWS V14.01,2013-04-28 05:14:00,
2013-04-28 00:17:00,57.2,49.4,27.23,South,177,0.0,3.6,75,0.00,,---,0.00,VWS V14.01,2013-04-28 05:17:00,
2013-04-28 00:19:00,57.2,49.4,27.23,South,189,3.6,3.6,75,0.00,,---,0.00,VWS V14.01,2013-04-28 05:19:00,
2013-04-28 00:22:00,57.2,49.4,27.23,SSE,161,4.9,4.9,75,0.00,,---,0.00,VWS V14.01,2013-04-28 05:22:00,
2013-04-28 00:23:00,57.2,49.4,27.23,SSE,161,4.9,4.9,75,0.00,,---,0.00,VWS V14.01,2013-04-28 05:23:00,
2013-04-28 00:24:00,57.2,49.4,27.23,SSE,161,4.9,4.9,75,0.00,,---,0.00,VWS V14.01,2013-04-28 05:24:00,
2013-04-28 00:27:00,57.4,49.9,27.23,SSW,198,2.2,5.8,76,0.00,,---,0.00,VWS V14.01,2013-04-28 05:27:00,
2013-04-28 00:28:00,57.4,49.9,27.23,SSW,198,2.2,5.8,76,0.00,,---,0.00,VWS V14.01,2013-04-28 05:28:00,
2013-04-28 00:29:00,57.4,49.9,27.23,South,170,2.7,2.7,76,0.00,,---,0.00,VWS V14.01,2013-04-28 05:29:00,
2013-04-28 00:33:00,57.6,50.1,27.23,SSE,163,6.3,6.3,76,0.00,,---,0.00,VWS V14.01,2013-04-28 05:33:00,
2013-04-28 00:34:00,57.6,50.1,27.23,South,187,3.6,6.3,76,0.00,,---,0.00,VWS V14.01,2013-04-28 05:34:00,
2013-04-28 00:38:00,57.6,50.1,27.23,South,177,12.3,12.3,76,0.00,,---,0.00,VWS V14.01,2013-04-28 05:38:00,
2013-04-28 00:39:00,57.6,50.1,27.23,South,177,12.3,12.3,76,0.00,,---,0.00,VWS V14.01,2013-04-28 05:39:00,
2013-04-28 00:40:00,57.6,50.1,27.23,SE,139,11.0,12.3,76,0.00,,---,0.00,VWS V14.01,2013-04-28 05:40:00,
2013-04-28 00:43:00,58.3,49.3,27.23,SE,139,11.0,11.0,72,0.00,,---,0.00,VWS V14.01,2013-04-28 05:43:00,
2013-04-28 00:44:00,58.3,49.3,27.23,SSE,152,3.6,3.6,72,0.00,,---,0.00,VWS V14.01,2013-04-28 05:44:00,
2013-04-28 00:45:00,58.3,49.3,27.23,SSE,153,5.4,5.4,72,0.00,,---,0.00,VWS V14.01,2013-04-28 05:45:00,
2013-04-28 00:48:00,58.5,48.7,27.23,SSE,153,5.4,5.4,70,0.00,,---,0.00,VWS V14.01,2013-04-28 05:48:00,
2013-04-28 00:49:00,58.5,48.7,27.23,SE,143,8.7,8.7,70,0.00,,---,0.00,VWS V14.01,2013-04-28 05:49:00,
2013-04-28 00:50:00,58.5,48.7,27.23,SE,143,8.7,8.7,70,0.00,,---,0.00,VWS V14.01,2013-04-28 05:50:00,
2013-04-28 00:53:00,58.5,48.7,27.23,South,175,9.2,9.2,70,0.00,,---,0.00,VWS V14.01,2013-04-28 05:53:00,
2013-04-28 00:54:00,58.5,48.7,27.23,SSE,158,8.3,8.3,70,0.00,,---,0.00,VWS V14.01,2013-04-28 05:54:00,
2013-04-28 00:55:00,58.5,48.7,27.23,South,176,3.6,8.3,70,0.00,,---,0.00,VWS V14.01,2013-04-28 05:55:00,
2013-04-28 00:58:00,58.5,48.7,27.23,SSE,168,8.7,8.7,70,0.00,,---,0.00,VWS V14.01,2013-04-28 05:58:00,
2013-04-28 00:59:00,58.8,47.1,27.23,South,182,6.3,8.7,65,0.00,,---,0.00,VWS V14.01,2013-04-28 05:59:00,
2013-04-28 01:00:00,58.8,47.1,27.23,SW,229,3.6,3.6,65,0.00,,---,0.00,VWS V14.01,2013-04-28 06:00:00,
2013-04-28 01:03:00,58.8,47.1,27.23,SW,229,3.6,3.6,65,0.00,,---,0.00,VWS V14.01,2013-04-28 06:03:00,
2013-04-28 01:04:00,58.8,47.1,27.23,South,185,4.9,5.4,65,0.00,,---,0.00,VWS V14.01,2013-04-28 06:04:00,
2013-04-28 01:05:00,58.8,47.1,27.23,South,185,4.9,4.9,65,0.00,,---,0.00,VWS V14.01,2013-04-28 06:05:00,
2013-04-28 01:06:00,58.8,47.1,27.23,South,182,7.6,8.7,65,0.00,,---,0.00,VWS V14.01,2013-04-28 06:06:00,
2013-04-28 01:08:00,58.8,47.1,27.23,SSE,163,5.8,12.8,65,0.00,,---,0.00,VWS V14.01,2013-04-28 06:08:00,
2013-04-28 01:09:00,58.8,47.1,27.23,SSE,163,5.8,5.8,65,0.00,,---,0.00,VWS V14.01,2013-04-28 06:09:00,
2013-04-28 01:10:00,58.8,47.1,27.23,South,170,5.4,5.4,65,0.00,,---,0.00,VWS V14.01,2013-04-28 06:10:00,
2013-04-28 01:11:00,59.0,46.0,27.23,South,170,5.4,5.4,62,0.00,,---,0.00,VWS V14.01,2013-04-28 06:11:00,
2013-04-28 01:13:00,59.0,46.0,27.23,South,169,3.6,4.9,62,0.00,,---,0.00,VWS V14.01,2013-04-28 06:13:00,
2013-04-28 01:14:00,59.0,46.0,27.23,SSE,148,5.4,5.4,62,0.00,,---,0.00,VWS V14.01,2013-04-28 06:14:00,
2013-04-28 01:15:00,59.0,46.0,27.23,SSE,148,5.4,5.4,62,0.00,,---,0.00,VWS V14.01,2013-04-28 06:15:00,
2013-04-28 01:16:00,59.0,46.0,27.20,SSE,148,5.4,5.4,62,0.00,,---,0.00,VWS V14.01,2013-04-28 06:16:00,
2013-04-28 01:18:00,59.0,46.8,27.20,SSE,150,5.8,5.8,64,0.00,,---,0.00,VWS V14.01,2013-04-28 06:18:00,
2013-04-28 01:19:00,59.0,46.8,27.20,SSE,150,5.8,5.8,64,0.00,,---,0.00,VWS V14.01,2013-04-28 06:19:00,
2013-04-28 01:20:00,59.0,46.8,27.20,South,181,8.1,8.1,64,0.00,,---,0.00,VWS V14.01,2013-04-28 06:20:00,
2013-04-28 01:21:00,59.0,46.8,27.20,South,176,6.3,8.1,64,0.00,,---,0.00,VWS V14.01,2013-04-28 06:21:00,
2013-04-28 01:23:00,59.0,46.8,27.20,South,170,5.4,5.4,64,0.00,,---,0.00,VWS V14.01,2013-04-28 06:23:00,
2013-04-28 01:24:00,59.0,46.8,27.20,SSE,153,8.1,8.1,64,0.00,,---,0.00,VWS V14.01,2013-04-28 06:24:00,
2013-04-28 01:25:00,59.0,46.8,27.23,SE,142,4.0,8.1,64,0.00,,---,0.00,VWS V14.01,2013-04-28 06:25:00,
2013-04-28 01:26:00,59.0,46.8,27.23,SE,142,4.0,8.1,64,0.00,,---,0.00,VWS V14.01,2013-04-28 06:26:00,
2013-04-28 01:29:00,58.8,46.7,27.23,SE,140,5.8,5.8,64,0.00,,---,0.00,VWS V14.01,2013-04-28 06:29:00,
2013-04-28 01:30:00,58.8,46.7,27.23,SE,140,5.8,5.8,64,0.00,,---,0.00,VWS V14.01,2013-04-28 06:30:00,
2013-04-28 01:31:00,58.8,46.7,27.23,SE,142,7.6,7.6,64,0.00,,---,0.00,VWS V14.01,2013-04-28 06:31:00,
2013-04-28 01:32:00,58.8,46.7,27.23,South,182,5.4,5.4,64,0.00,,---,0.00,VWS V14.01,2013-04-28 06:32:00,
2013-04-28 01:34:00,58.8,46.7,27.23,SSE,158,6.3,6.3,64,0.00,,---,0.00,VWS V14.01,2013-04-28 06:34:00,
2013-04-28 01:35:00,58.8,46.7,27.23,SSE,158,6.3,6.3,64,0.00,,---,0.00,VWS V14.01,2013-04-28 06:35:00,
2013-04-28 01:36:00,58.8,46.7,27.23,SSE,164,5.4,5.4,64,0.00,,---,0.00,VWS V14.01,2013-04-28 06:36:00,
2013-04-28 01:38:00,58.8,46.7,27.23,SSE,164,5.4,5.4,64,0.00,,---,0.00,VWS V14.01,2013-04-28 06:38:00,
2013-04-28 01:39:00,58.8,46.7,27.23,SSE,164,5.4,5.4,64,0.00,,---,0.00,VWS V14.01,2013-04-28 06:39:00,
2013-04-28 01:40:00,58.8,46.7,27.23,SSE,164,5.4,5.4,64,0.00,,---,0.00,VWS V14.01,2013-04-28 06:40:00,
2013-04-28 01:41:00,58.8,46.7,27.23,SSE,164,5.4,5.4,64,0.00,,---,0.00,VWS V14.01,2013-04-28 06:41:00,
2013-04-28 01:43:00,58.8,46.7,27.23,SSE,166,7.6,7.6,64,0.00,,---,0.00,VWS V14.01,2013-04-28 06:43:00,
2013-04-28 01:44:00,58.8,46.7,27.23,SE,131,5.4,5.8,64,0.00,,---,0.00,VWS V14.01,2013-04-28 06:44:00,
2013-04-28 01:45:00,58.8,46.7,27.23,SE,131,5.4,5.4,64,0.00,,---,0.00,VWS V14.01,2013-04-28 06:45:00,
2013-04-28 01:46:00,58.8,46.7,27.23,SE,131,5.4,5.4,64,0.00,,---,0.00,VWS V14.01,2013-04-28 06:46:00,
2013-04-28 01:48:00,58.8,46.7,27.23,SSE,162,5.4,5.4,64,0.00,,---,0.00,VWS V14.01,2013-04-28 06:48:00,
2013-04-28 01:49:00,58.8,46.7,27.17,SSE,167,10.1,10.1,64,0.00,,---,0.00,VWS V14.01,2013-04-28 06:49:00,
2013-04-28 01:50:00,58.8,46.7,27.17,SSE,167,5.4,10.1,64,0.00,,---,0.00,VWS V14.01,2013-04-28 06:50:00,
2013-04-28 01:51:00,58.8,46.7,27.17,South,176,8.1,8.1,64,0.00,,---,0.00,VWS V14.01,2013-04-28 06:51:00,
2013-04-28 01:53:00,58.8,46.7,27.17,SSE,152,3.6,3.6,64,0.00,,---,0.00,VWS V14.01,2013-04-28 06:53:00,
2013-04-28 01:54:00,58.8,46.7,27.17,SE,140,6.3,8.1,64,0.00,,---,0.00,VWS V14.01,2013-04-28 06:54:00,
2013-04-28 01:55:00,58.8,46.7,27.17,SSE,153,8.3,8.3,64,0.00,,---,0.00,VWS V14.01,2013-04-28 06:55:00,
2013-04-28 01:57:00,58.8,46.7,27.17,SSE,156,5.8,8.3,64,0.00,,---,0.00,VWS V14.01,2013-04-28 06:57:00,
2013-04-28 01:58:00,58.8,46.7,27.17,South,177,11.0,11.0,64,0.00,,---,0.00,VWS V14.01,2013-04-28 06:58:00,
2013-04-28 01:59:00,58.8,46.7,27.17,SE,140,5.8,11.0,64,0.00,,---,0.00,VWS V14.01,2013-04-28 06:59:00,
2013-04-28 02:00:00,58.8,46.7,27.17,East,85,6.3,6.3,64,0.00,,---,0.00,VWS V14.01,2013-04-28 07:00:00,
2013-04-28 02:02:00,58.6,46.9,27.17,SE,146,6.3,6.3,65,0.00,,---,0.00,VWS V14.01,2013-04-28 07:02:00,
2013-04-28 02:03:00,58.6,46.9,27.17,SSW,194,5.8,6.3,65,0.00,,---,0.00,VWS V14.01,2013-04-28 07:03:00,
2013-04-28 02:04:00,58.6,46.9,27.17,South,181,8.7,8.7,65,0.00,,---,0.00,VWS V14.01,2013-04-28 07:04:00,
2013-04-28 02:06:00,58.6,46.9,27.17,SSW,198,8.7,8.7,65,0.00,,---,0.00,VWS V14.01,2013-04-28 07:06:00,
2013-04-28 02:07:00,58.6,46.9,27.17,SSE,160,5.4,8.7,65,0.00,,---,0.00,VWS V14.01,2013-04-28 07:07:00,
2013-04-28 02:08:00,58.6,46.9,27.17,SSE,158,5.4,5.4,65,0.00,,---,0.00,VWS V14.01,2013-04-28 07:08:00,
2013-04-28 02:09:00,58.6,46.9,27.17,SSE,167,8.7,8.7,65,0.00,,---,0.00,VWS V14.01,2013-04-28 07:09:00,
2013-04-28 02:11:00,58.6,46.9,27.17,ESE,104,2.7,2.7,65,0.00,,---,0.00,VWS V14.01,2013-04-28 07:11:00,
2013-04-28 02:12:00,58.6,46.9,27.20,ESE,104,2.7,2.7,65,0.00,,---,0.00,VWS V14.01,2013-04-28 07:12:00,
2013-04-28 02:13:00,58.6,46.9,27.20,ESE,104,2.7,2.7,65,0.00,,---,0.00,VWS V14.01,2013-04-28 07:13:00,
2013-04-28 02:15:00,58.6,46.9,27.20,SSE,162,15.0,15.0,65,0.00,,---,0.00,VWS V14.01,2013-04-28 07:15:00,
2013-04-28 02:16:00,58.6,46.9,27.20,South,178,7.6,7.6,65,0.00,,---,0.00,VWS V14.01,2013-04-28 07:16:00,
2013-04-28 02:17:00,58.6,46.9,27.20,South,179,10.5,10.5,65,0.00,,---,0.00,VWS V14.01,2013-04-28 07:17:00,
2013-04-28 02:18:00,58.6,46.9,27.20,South,179,10.5,10.5,65,0.00,,---,0.00,VWS V14.01,2013-04-28 07:18:00,
2013-04-28 02:20:00,58.5,47.2,27.20,SSE,162,7.6,7.6,66,0.00,,---,0.00,VWS V14.01,2013-04-28 07:20:00,
2013-04-28 02:21:00,58.5,47.2,27.20,SSE,162,7.6,7.6,66,0.00,,---,0.00,VWS V14.01,2013-04-28 07:21:00,
2013-04-28 02:22:00,58.5,47.2,27.20,SSE,162,7.6,7.6,66,0.00,,---,0.00,VWS V14.01,2013-04-28 07:22:00,
2013-04-28 02:23:00,58.5,47.2,27.20,SSE,152,3.6,3.6,66,0.00,,---,0.00,VWS V14.01,2013-04-28 07:23:00,
2013-04-28 02:25:00,58.5,47.2,27.20,ESE,108,8.1,8.1,66,0.00,,---,0.00,VWS V14.01,2013-04-28 07:25:00,
2013-04-28 02:26:00,58.5,47.2,27.20,SSE,165,8.7,8.7,66,0.00,,---,0.00,VWS V14.01,2013-04-28 07:26:00,
2013-04-28 02:27:00,58.5,47.2,27.20,SSE,165,8.7,8.7,66,0.00,,---,0.00,VWS V14.01,2013-04-28 07:27:00,
2013-04-28 02:28:00,58.5,47.2,27.20,SSE,155,4.9,4.9,66,0.00,,---,0.00,VWS V14.01,2013-04-28 07:28:00,
2013-04-28 02:30:00,58.5,47.2,27.20,South,184,5.8,5.8,66,0.00,,---,0.00,VWS V14.01,2013-04-28 07:30:00,
2013-04-28 02:31:00,58.5,47.2,27.20,SE,131,10.1,10.1,66,0.00,,---,0.00,VWS V14.01,2013-04-28 07:31:00,
2013-04-28 02:32:00,58.5,47.2,27.20,SE,131,10.1,10.1,66,0.00,,---,0.00,VWS V14.01,2013-04-28 07:32:00,
2013-04-28 02:33:00,58.5,47.2,27.14,SSE,167,6.3,6.3,66,0.00,,---,0.00,VWS V14.01,2013-04-28 07:33:00,
2013-04-28 02:35:00,58.5,47.2,27.14,South,174,5.4,5.4,66,0.00,,---,0.00,VWS V14.01,2013-04-28 07:35:00,
2013-04-28 02:37:00,58.5,47.2,27.14,SE,140,7.6,7.6,66,0.00,,---,0.00,VWS V14.01,2013-04-28 07:37:00,
2013-04-28 02:38:00,58.5,47.2,27.14,SSE,166,6.3,7.6,66,0.00,,---,0.00,VWS V14.01,2013-04-28 07:38:00,
2013-04-28 02:40:00,58.5,47.2,27.14,SE,146,3.6,6.3,66,0.00,,---,0.00,VWS V14.01,2013-04-28 07:40:00,
2013-04-28 02:42:00,58.5,47.2,27.14,SSE,159,4.9,4.9,66,0.00,,---,0.00,VWS V14.01,2013-04-28 07:42:00,
2013-04-28 02:43:00,58.5,47.2,27.14,South,172,5.4,5.4,66,0.00,,---,0.00,VWS V14.01,2013-04-28 07:43:00,
2013-04-28 02:46:00,58.5,47.6,27.14,SSE,166,5.4,5.4,67,0.00,,---,0.00,VWS V14.01,2013-04-28 07:46:00,
2013-04-28 02:47:00,58.3,47.4,27.14,SSE,166,5.4,5.4,67,0.00,,---,0.00,VWS V14.01,2013-04-28 07:47:00,
2013-04-28 02:48:00,58.3,47.8,27.14,SSE,167,6.3,6.3,68,0.00,,---,0.00,VWS V14.01,2013-04-28 07:48:00,
2013-04-28 02:49:00,58.3,47.8,27.14,SSE,167,6.3,6.3,68,0.00,,---,0.00,VWS V14.01,2013-04-28 07:49:00,
2013-04-28 02:51:00,58.3,47.8,27.14,SSE,167,6.3,6.3,68,0.00,,---,0.00,VWS V14.01,2013-04-28 07:51:00,
2013-04-28 02:52:00,58.3,47.8,27.17,South,177,5.8,5.8,68,0.00,,---,0.00,VWS V14.01,2013-04-28 07:52:00,
2013-04-28 02:53:00,58.3,47.8,27.17,SE,129,4.9,6.3,68,0.00,,---,0.00,VWS V14.01,2013-04-28 07:53:00,
2013-04-28 02:54:00,58.3,47.8,27.17,SE,129,4.9,6.3,68,0.00,,---,0.00,VWS V14.01,2013-04-28 07:54:00,
2013-04-28 02:56:00,58.3,47.8,27.17,SSE,149,6.3,6.3,68,0.00,,---,0.00,VWS V14.01,2013-04-28 07:56:00,
2013-04-28 02:57:00,58.1,48.4,27.17,SSE,149,6.3,6.3,70,0.00,,---,0.00,VWS V14.01,2013-04-28 07:57:00,
2013-04-28 02:58:00,58.1,48.4,27.17,SSE,149,6.3,6.3,70,0.00,,---,0.00,VWS V14.01,2013-04-28 07:58:00,
2013-04-28 02:59:00,58.1,48.4,27.17,SE,143,2.7,6.3,70,0.00,,---,0.00,VWS V14.01,2013-04-28 07:59:00,
2013-04-28 03:01:00,58.1,48.4,27.17,SE,133,5.4,7.6,70,0.00,,---,0.00,VWS V14.01,2013-04-28 08:01:00,
2013-04-28 03:02:00,58.1,48.4,27.17,SSE,150,6.3,6.3,70,0.00,,---,0.00,VWS V14.01,2013-04-28 08:02:00,
2013-04-28 03:03:00,58.1,48.4,27.17,SSE,150,6.3,6.3,70,0.00,,---,0.00,VWS V14.01,2013-04-28 08:03:00,
2013-04-28 03:04:00,58.1,48.4,27.17,SSE,150,6.3,6.3,70,0.00,,---,0.00,VWS V14.01,2013-04-28 08:04:00,
2013-04-28 03:06:00,58.1,48.4,27.17,SSE,164,6.3,6.3,70,0.00,,---,0.00,VWS V14.01,2013-04-28 08:06:00,
2013-04-28 03:07:00,58.1,48.4,27.17,SSE,164,6.3,6.3,70,0.00,,---,0.00,VWS V14.01,2013-04-28 08:07:00,
2013-04-28 03:09:00,58.1,48.4,27.17,SSE,164,6.3,6.3,70,0.00,,---,0.00,VWS V14.01,2013-04-28 08:09:00,
2013-04-28 03:11:00,58.3,48.2,27.14,SSW,211,7.6,7.6,69,0.00,,---,0.00,VWS V14.01,2013-04-28 08:11:00,
2013-04-28 03:12:00,58.3,48.2,27.14,SSW,211,7.6,7.6,69,0.00,,---,0.00,VWS V14.01,2013-04-28 08:12:00,
2013-04-28 03:14:00,58.3,48.2,27.14,SSE,147,4.9,4.9,69,0.00,,---,0.00,VWS V14.01,2013-04-28 08:14:00,
2013-04-28 03:17:00,58.3,48.2,27.14,SSE,163,8.7,8.7,69,0.00,,---,0.00,VWS V14.01,2013-04-28 08:17:00,
2013-04-28 03:19:00,58.3,48.2,27.14,SSE,148,5.4,5.4,69,0.00,,---,0.00,VWS V14.01,2013-04-28 08:19:00,
2013-04-28 03:20:00,58.3,48.2,27.14,SSE,148,5.4,5.4,69,0.00,,---,0.00,VWS V14.01,2013-04-28 08:20:00,
2013-04-28 03:22:00,58.3,48.2,27.14,SE,135,6.3,6.3,69,0.00,,---,0.00,VWS V14.01,2013-04-28 08:22:00,
2013-04-28 03:23:00,58.3,48.2,27.14,SE,135,6.3,6.3,69,0.00,,---,0.00,VWS V14.01,2013-04-28 08:23:00,
2013-04-28 03:24:00,58.3,48.2,27.14,ESE,115,5.4,6.3,69,0.00,,---,0.00,VWS V14.01,2013-04-28 08:24:00,
2013-04-28 03:25:00,58.3,48.2,27.14,ESE,115,5.4,5.4,69,0.00,,---,0.00,VWS V14.01,2013-04-28 08:25:00,
2013-04-28 03:27:00,58.3,48.2,27.14,South,175,3.1,3.1,69,0.00,,---,0.00,VWS V14.01,2013-04-28 08:27:00,
2013-04-28 03:28:00,58.3,48.2,27.14,SSE,166,6.3,9.6,69,0.00,,---,0.00,VWS V14.01,2013-04-28 08:28:00,
2013-04-28 03:29:00,58.3,48.2,27.14,SSE,162,5.8,6.3,69,0.00,,---,0.00,VWS V14.01,2013-04-28 08:29:00,
2013-04-28 03:30:00,58.3,48.2,27.14,South,169,6.3,6.3,69,0.00,,---,0.00,VWS V14.01,2013-04-28 08:30:00,
2013-04-28 03:32:00,58.3,48.2,27.14,SSE,165,3.1,3.1,69,0.00,,---,0.00,VWS V14.01,2013-04-28 08:32:00,
2013-04-28 03:34:00,58.3,48.2,27.14,SSE,164,5.4,5.4,69,0.00,,---,0.00,VWS V14.01,2013-04-28 08:34:00,
2013-04-28 03:35:00,58.3,48.2,27.14,SSE,157,3.6,5.4,69,0.00,,---,0.00,VWS V14.01,2013-04-28 08:35:00,
2013-04-28 03:37:00,58.3,48.2,27.14,WSW,240,5.4,5.4,69,0.00,,---,0.00,VWS V14.01,2013-04-28 08:37:00,
2013-04-28 03:38:00,58.3,48.2,27.14,SSW,193,9.6,9.6,69,0.00,,---,0.00,VWS V14.01,2013-04-28 08:38:00,
2013-04-28 03:40:00,58.3,48.2,27.14,SSW,193,9.6,9.6,69,0.00,,---,0.00,VWS V14.01,2013-04-28 08:40:00,
2013-04-28 03:42:00,58.3,48.2,27.14,SE,146,5.4,5.4,69,0.00,,---,0.00,VWS V14.01,2013-04-28 08:42:00,
2013-04-28 03:43:00,58.1,48.4,27.20,SE,146,5.4,5.4,70,0.00,,---,0.00,VWS V14.01,2013-04-28 08:43:00,
2013-04-28 03:44:00,58.1,48.4,27.20,SE,146,5.4,5.4,70,0.00,,---,0.00,VWS V14.01,2013-04-28 08:44:00,
2013-04-28 03:45:00,58.1,48.4,27.20,SSE,160,3.1,5.4,70,0.00,,---,0.00,VWS V14.01,2013-04-28 08:45:00,
2013-04-28 03:47:00,58.1,48.4,27.20,SE,141,6.3,6.3,70,0.00,,---,0.00,VWS V14.01,2013-04-28 08:47:00,
2013-04-28 03:48:00,58.1,48.4,27.20,SE,125,5.8,6.3,70,0.00,,---,0.00,VWS V14.01,2013-04-28 08:48:00,
2013-04-28 03:49:00,58.1,48.4,27.20,SE,137,6.3,6.3,70,0.00,,---,0.00,VWS V14.01,2013-04-28 08:49:00,
2013-04-28 03:50:00,58.1,48.4,27.20,SE,137,6.3,6.3,70,0.00,,---,0.00,VWS V14.01,2013-04-28 08:50:00,
2013-04-28 03:53:00,58.1,48.4,27.20,NW,313,5.4,5.4,70,0.00,,---,0.00,VWS V14.01,2013-04-28 08:53:00,
2013-04-28 03:55:00,58.1,48.8,27.20,North,4,4.0,4.0,71,0.00,,---,0.00,VWS V14.01,2013-04-28 08:55:00,
2013-04-28 03:57:00,58.1,48.8,27.17,South,181,5.8,5.8,71,0.00,,---,0.00,VWS V14.01,2013-04-28 08:57:00,
2013-04-28 03:58:00,58.1,48.8,27.17,South,181,5.8,5.8,71,0.00,,---,0.00,VWS V14.01,2013-04-28 08:58:00,
2013-04-28 04:00:00,58.1,48.8,27.17,South,181,5.8,5.8,71,0.00,,---,0.00,VWS V14.01,2013-04-28 09:00:00,
2013-04-28 04:01:00,58.1,49.1,27.17,South,182,6.3,6.3,72,0.00,,---,0.00,VWS V14.01,2013-04-28 09:01:00,
2013-04-28 04:02:00,57.9,49.0,27.17,South,172,8.3,8.3,72,0.00,,---,0.00,VWS V14.01,2013-04-28 09:02:00,
2013-04-28 04:03:00,57.9,49.0,27.17,South,172,8.3,8.3,72,0.00,,---,0.00,VWS V14.01,2013-04-28 09:03:00,
2013-04-28 04:05:00,57.9,49.0,27.17,South,179,3.1,4.9,72,0.00,,---,0.00,VWS V14.01,2013-04-28 09:05:00,
2013-04-28 04:06:00,57.9,49.0,27.17,South,179,3.1,3.1,72,0.00,,---,0.00,VWS V14.01,2013-04-28 09:06:00,
2013-04-28 04:08:00,57.9,49.0,27.17,SSE,166,5.4,5.4,72,0.00,,---,0.00,VWS V14.01,2013-04-28 09:08:00,
2013-04-28 04:10:00,57.9,49.0,27.17,SSE,159,5.4,5.4,72,0.00,,---,0.00,VWS V14.01,2013-04-28 09:10:00,
2013-04-28 04:11:00,57.9,49.0,27.17,ESE,105,5.8,5.8,72,0.00,,---,0.00,VWS V14.01,2013-04-28 09:11:00,
2013-04-28 04:13:00,57.9,49.0,27.17,ESE,105,5.8,5.8,72,0.00,,---,0.00,VWS V14.01,2013-04-28 09:13:00,
2013-04-28 04:14:00,57.9,49.0,27.17,SSE,159,5.4,5.8,72,0.00,,---,0.00,VWS V14.01,2013-04-28 09:14:00,
2013-04-28 04:15:00,57.9,49.0,27.17,SSE,160,4.0,6.3,72,0.00,,---,0.00,VWS V14.01,2013-04-28 09:15:00,
2013-04-28 04:16:00,57.9,49.7,27.17,SE,131,7.6,7.6,74,0.00,,---,0.00,VWS V14.01,2013-04-28 09:16:00,
2013-04-28 04:18:00,57.9,49.7,27.17,SSE,160,7.2,7.2,74,0.00,,---,0.00,VWS V14.01,2013-04-28 09:18:00,
2013-04-28 04:19:00,57.7,49.5,27.17,SSE,160,7.2,7.2,74,0.00,,---,0.00,VWS V14.01,2013-04-28 09:19:00,
2013-04-28 04:20:00,57.7,49.5,27.17,SSE,148,5.4,7.6,74,0.00,,---,0.00,VWS V14.01,2013-04-28 09:20:00,
2013-04-28 04:21:00,57.7,49.5,27.17,SSE,148,5.4,7.6,74,0.00,,---,0.00,VWS V14.01,2013-04-28 09:21:00,
2013-04-28 04:23:00,57.7,49.5,27.17,SSE,160,3.6,5.4,74,0.00,,---,0.00,VWS V14.01,2013-04-28 09:23:00,
2013-04-28 04:24:00,57.7,49.5,27.17,SE,140,3.1,3.1,74,0.00,,---,0.00,VWS V14.01,2013-04-28 09:24:00,
2013-04-28 04:26:00,57.7,49.5,27.17,SE,140,3.1,3.1,74,0.00,,---,0.00,VWS V14.01,2013-04-28 09:26:00,
2013-04-28 04:28:00,57.7,49.5,27.17,SSE,161,5.4,7.6,74,0.00,,---,0.00,VWS V14.01,2013-04-28 09:28:00,
2013-04-28 04:29:00,57.7,49.5,27.17,SSE,161,5.4,5.4,74,0.00,,---,0.00,VWS V14.01,2013-04-28 09:29:00,
2013-04-28 04:31:00,57.7,49.5,27.14,SSE,151,6.3,6.3,74,0.00,,---,0.00,VWS V14.01,2013-04-28 09:31:00,
2013-04-28 04:33:00,57.7,49.5,27.14,SW,234,5.8,5.8,74,0.00,,---,0.00,VWS V14.01,2013-04-28 09:33:00,
2013-04-28 04:35:00,57.7,49.5,27.14,SE,141,5.4,5.8,74,0.00,,---,0.00,VWS V14.01,2013-04-28 09:35:00,
2013-04-28 04:36:00,57.9,49.7,27.14,South,171,5.8,5.8,74,0.00,,---,0.00,VWS V14.01,2013-04-28 09:36:00,
2013-04-28 04:38:00,57.9,49.7,27.14,SSE,166,5.8,5.8,74,0.00,,---,0.00,VWS V14.01,2013-04-28 09:38:00,
2013-04-28 04:40:00,57.9,49.7,27.14,SW,222,3.1,4.0,74,0.00,,---,0.00,VWS V14.01,2013-04-28 09:40:00,
2013-04-28 04:41:00,57.9,50.0,27.14,SW,222,3.1,3.1,75,0.00,,---,0.00,VWS V14.01,2013-04-28 09:41:00,
2013-04-28 04:42:00,57.9,50.0,27.14,SW,222,3.1,3.1,75,0.00,,---,0.00,VWS V14.01,2013-04-28 09:42:00,
2013-04-28 04:44:00,57.7,49.9,27.14,SSE,150,4.0,4.0,75,0.00,,---,0.00,VWS V14.01,2013-04-28 09:44:00,
2013-04-28 04:45:00,57.7,49.9,27.14,SSE,150,4.0,4.0,75,0.00,,---,0.00,VWS V14.01,2013-04-28 09:45:00,
2013-04-28 04:46:00,57.7,49.9,27.14,SSE,150,4.0,4.0,75,0.00,,---,0.00,VWS V14.01,2013-04-28 09:46:00,
2013-04-28 04:47:00,57.7,49.9,27.14,SSE,150,4.0,4.0,75,0.00,,---,0.00,VWS V14.01,2013-04-28 09:47:00,
2013-04-28 04:49:00,57.7,49.9,27.14,South,181,0.0,0.0,75,0.00,,---,0.00,VWS V14.01,2013-04-28 09:49:00,
2013-04-28 04:50:00,57.7,49.9,27.14,South,181,0.0,0.0,75,0.00,,---,0.00,VWS V14.01,2013-04-28 09:50:00,
2013-04-28 04:52:00,57.7,49.9,27.14,NW,317,8.3,8.3,75,0.00,,---,0.00,VWS V14.01,2013-04-28 09:52:00,
2013-04-28 04:54:00,57.9,50.4,27.14,NW,318,8.1,8.1,76,0.00,,---,0.00,VWS V14.01,2013-04-28 09:54:00,
2013-04-28 04:55:00,57.9,50.4,27.14,NW,318,8.1,8.1,76,0.00,,---,0.00,VWS V14.01,2013-04-28 09:55:00,
2013-04-28 04:57:00,57.9,50.4,27.14,NW,318,8.1,8.1,76,0.00,,---,0.00,VWS V14.01,2013-04-28 09:57:00,
2013-04-28 04:59:00,57.9,50.4,27.23,West,279,0.0,2.7,76,0.00,,---,0.00,VWS V14.01,2013-04-28 09:59:00,
2013-04-28 05:00:00,57.9,50.4,27.23,West,279,0.0,0.0,76,0.00,,---,0.00,VWS V14.01,2013-04-28 10:00:00,
2013-04-28 05:02:00,57.9,50.4,27.23,NNW,338,3.1,3.1,76,0.00,,---,0.00,VWS V14.01,2013-04-28 10:02:00,
2013-04-28 05:03:00,57.9,50.4,27.23,NW,319,5.4,5.4,76,0.04,,---,0.04,VWS V14.01,2013-04-28 10:03:00,
2013-04-28 05:04:00,57.9,50.4,27.23,NW,319,5.4,5.4,76,0.04,,---,0.04,VWS V14.01,2013-04-28 10:04:00,
2013-04-28 05:05:00,57.9,50.4,27.23,West,268,4.0,5.4,76,0.04,,---,0.04,VWS V14.01,2013-04-28 10:05:00,
2013-04-28 05:07:00,57.9,51.5,27.23,West,268,4.0,4.0,79,0.04,,---,0.04,VWS V14.01,2013-04-28 10:07:00,
2013-04-28 05:08:00,57.9,51.8,27.23,West,268,4.0,4.0,80,0.04,,---,0.04,VWS V14.01,2013-04-28 10:08:00,
2013-04-28 05:09:00,57.9,51.8,27.23,NNW,335,5.8,5.8,80,0.04,,---,0.04,VWS V14.01,2013-04-28 10:09:00,
2013-04-28 05:11:00,57.9,51.8,27.23,WNW,287,0.0,0.0,80,0.16,,---,0.16,VWS V14.01,2013-04-28 10:11:00,
2013-04-28 05:12:00,57.9,51.8,27.23,NNW,332,0.0,0.0,80,0.20,,---,0.20,VWS V14.01,2013-04-28 10:12:00,
2013-04-28 05:13:00,57.9,51.8,27.23,NNW,332,0.0,0.0,80,0.20,,---,0.20,VWS V14.01,2013-04-28 10:13:00,
2013-04-28 05:15:00,57.9,51.8,27.23,NNW,333,0.0,0.0,80,0.20,,---,0.20,VWS V14.01,2013-04-28 10:15:00,
2013-04-28 05:16:00,57.9,51.8,27.23,NNW,333,0.0,0.0,80,0.20,,---,0.20,VWS V14.01,2013-04-28 10:16:00,
2013-04-28 05:17:00,57.9,51.8,27.20,East,91,2.7,2.7,80,0.20,,---,0.20,VWS V14.01,2013-04-28 10:17:00,
2013-04-28 05:18:00,57.9,51.8,27.20,SE,141,2.2,2.2,80,0.20,,---,0.20,VWS V14.01,2013-04-28 10:18:00,
2013-04-28 05:20:00,57.9,51.8,27.20,South,177,2.2,2.2,80,0.20,,---,0.20,VWS V14.01,2013-04-28 10:20:00,
2013-04-28 05:22:00,57.2,51.1,27.20,SE,146,4.0,4.0,80,0.20,,---,0.20,VWS V14.01,2013-04-28 10:22:00,
2013-04-28 05:23:00,57.2,51.1,27.20,SE,146,4.0,4.0,80,0.20,,---,0.20,VWS V14.01,2013-04-28 10:23:00,
2013-04-28 05:25:00,57.2,51.1,27.20,SE,140,3.1,3.1,80,0.28,,---,0.28,VWS V14.01,2013-04-28 10:25:00,
2013-04-28 05:26:00,57.2,51.1,27.20,SE,140,3.1,3.1,80,0.28,,---,0.28,VWS V14.01,2013-04-28 10:26:00,
2013-04-28 05:27:00,57.2,51.1,27.20,SSE,165,3.6,3.6,80,0.31,,---,0.31,VWS V14.01,2013-04-28 10:27:00,
2013-04-28 05:28:00,57.2,51.4,27.20,SSE,165,3.6,3.6,81,0.31,,---,0.31,VWS V14.01,2013-04-28 10:28:00,
2013-04-28 05:31:00,57.2,51.8,27.20,SSE,165,3.6,3.6,82,0.31,,---,0.31,VWS V14.01,2013-04-28 10:31:00,
2013-04-28 05:32:00,57.2,52.1,27.20,SSE,165,3.6,3.6,83,0.31,,---,0.31,VWS V14.01,2013-04-28 10:32:00,
2013-04-28 05:33:00,57.2,52.1,27.20,ESE,119,2.7,3.6,83,0.31,,---,0.31,VWS V14.01,2013-04-28 10:33:00,
2013-04-28 05:36:00,57.2,52.1,27.20,South,182,5.4,5.4,83,0.31,,---,0.31,VWS V14.01,2013-04-28 10:36:00,
2013-04-28 05:37:00,57.2,52.1,27.20,ESE,117,0.0,0.0,83,0.35,,---,0.35,VWS V14.01,2013-04-28 10:37:00,
2013-04-28 05:38:00,57.2,52.1,27.20,SSE,153,0.0,0.0,83,0.35,,---,0.35,VWS V14.01,2013-04-28 10:38:00,
2013-04-28 05:41:00,57.2,52.1,27.20,SSE,165,6.3,6.3,83,0.39,,---,0.39,VWS V14.01,2013-04-28 10:41:00,
2013-04-28 05:42:00,57.0,52.6,27.14,SSE,165,6.3,6.3,85,0.39,,---,0.39,VWS V14.01,2013-04-28 10:42:00,
2013-04-28 05:43:00,57.0,52.6,27.14,SSE,165,6.3,6.3,85,0.39,,---,0.39,VWS V14.01,2013-04-28 10:43:00,
2013-04-28 05:46:00,57.0,52.6,27.14,SE,141,0.0,0.0,85,0.39,,---,0.39,VWS V14.01,2013-04-28 10:46:00,
2013-04-28 05:47:00,57.0,52.6,27.14,SE,141,0.0,0.0,85,0.39,,---,0.39,VWS V14.01,2013-04-28 10:47:00,
2013-04-28 05:48:00,57.0,52.6,27.14,SSE,157,2.7,2.7,85,0.39,,---,0.39,VWS V14.01,2013-04-28 10:48:00,
2013-04-28 05:51:00,56.8,52.7,27.14,South,182,0.0,0.0,86,0.39,,---,0.39,VWS V14.01,2013-04-28 10:51:00,
2013-04-28 05:52:00,56.8,52.7,27.14,South,182,0.0,0.0,86,0.39,,---,0.39,VWS V14.01,2013-04-28 10:52:00,
2013-04-28 05:53:00,56.8,52.7,27.14,SSE,163,4.0,4.0,86,0.39,,---,0.39,VWS V14.01,2013-04-28 10:53:00,
2013-04-28 05:54:00,56.8,52.7,27.14,SSE,163,4.0,4.0,86,0.39,,---,0.39,VWS V14.01,2013-04-28 10:54:00,
2013-04-28 05:56:00,56.8,53.0,27.14,SSE,150,2.7,2.7,87,0.43,,---,0.43,VWS V14.01,2013-04-28 10:56:00,
2013-04-28 05:57:00,56.8,53.0,27.14,SSE,150,2.7,2.7,87,0.43,,---,0.43,VWS V14.01,2013-04-28 10:57:00,
2013-04-28 05:58:00,56.8,53.0,27.14,SE,135,3.6,3.6,87,0.43,,---,0.43,VWS V14.01,2013-04-28 10:58:00,
2013-04-28 05:59:00,56.8,53.3,27.14,SE,135,3.6,3.6,88,0.43,,---,0.43,VWS V14.01,2013-04-28 10:59:00,
2013-04-28 06:01:00,56.8,53.3,27.14,SSE,159,5.8,6.3,88,0.43,,---,0.43,VWS V14.01,2013-04-28 11:01:00,
2013-04-28 06:02:00,56.8,53.3,27.14,SSE,159,5.8,5.8,88,0.43,,---,0.43,VWS V14.01,2013-04-28 11:02:00,
2013-04-28 06:03:00,56.8,53.3,27.14,SE,139,7.6,7.6,88,0.39,,---,0.43,VWS V14.01,2013-04-28 11:03:00,
2013-04-28 06:04:00,56.8,53.3,27.14,SE,139,7.6,7.6,88,0.51,,---,0.55,VWS V14.01,2013-04-28 11:04:00,
2013-04-28 06:07:00,56.8,53.3,27.17,SE,132,5.4,5.4,88,0.51,,---,0.55,VWS V14.01,2013-04-28 11:07:00,
2013-04-28 06:08:00,56.8,53.6,27.17,SSE,155,8.7,8.7,89,0.51,,---,0.55,VWS V14.01,2013-04-28 11:08:00,
2013-04-28 06:09:00,56.8,53.6,27.17,SSE,155,8.7,8.7,89,0.51,,---,0.55,VWS V14.01,2013-04-28 11:09:00,
2013-04-28 06:12:00,56.8,53.6,27.17,SE,130,5.8,5.8,89,0.35,,---,0.55,VWS V14.01,2013-04-28 11:12:00,
2013-04-28 06:13:00,56.8,53.6,27.17,SE,130,5.8,5.8,89,0.43,,---,0.63,VWS V14.01,2013-04-28 11:13:00,
2013-04-28 06:14:00,56.8,54.2,27.17,SE,130,5.8,5.8,91,0.43,,---,0.63,VWS V14.01,2013-04-28 11:14:00,
2013-04-28 06:17:00,56.8,54.2,27.17,SE,132,5.8,5.8,91,0.43,,---,0.63,VWS V14.01,2013-04-28 11:17:00,
2013-04-28 06:18:00,56.8,54.2,27.17,SSE,168,5.8,5.8,91,0.43,,---,0.63,VWS V14.01,2013-04-28 11:18:00,
2013-04-28 06:19:00,56.8,54.2,27.17,SSE,168,5.8,5.8,91,0.43,,---,0.63,VWS V14.01,2013-04-28 11:19:00,
2013-04-28 06:22:00,56.8,54.2,27.17,South,186,3.1,7.6,91,0.43,,---,0.63,VWS V14.01,2013-04-28 11:22:00,
2013-04-28 06:24:00,56.8,54.2,27.17,South,186,3.1,3.1,91,0.35,,---,0.63,VWS V14.01,2013-04-28 11:24:00,
2013-04-28 06:25:00,56.8,54.5,27.17,South,171,0.0,0.0,92,0.35,,---,0.63,VWS V14.01,2013-04-28 11:25:00,
2013-04-28 06:27:00,56.8,54.5,27.17,South,182,3.1,4.0,92,0.31,,---,0.63,VWS V14.01,2013-04-28 11:27:00,
2013-04-28 06:28:00,56.8,54.5,27.17,South,182,3.1,3.1,92,0.31,,---,0.63,VWS V14.01,2013-04-28 11:28:00,
2013-04-28 06:29:00,56.8,54.5,27.17,East,93,2.7,2.7,92,0.31,,---,0.63,VWS V14.01,2013-04-28 11:29:00,
2013-04-28 06:30:00,56.8,54.5,27.17,SSW,210,4.9,4.9,92,0.31,,---,0.63,VWS V14.01,2013-04-28 11:30:00,
2013-04-28 06:32:00,56.8,54.5,27.17,South,178,3.6,13.2,92,0.31,,---,0.63,VWS V14.01,2013-04-28 11:32:00,
2013-04-28 06:33:00,56.8,54.5,27.17,South,178,3.6,3.6,92,0.31,,---,0.63,VWS V14.01,2013-04-28 11:33:00,
2013-04-28 06:34:00,56.8,54.5,27.17,SSE,147,10.1,10.1,92,0.31,,---,0.63,VWS V14.01,2013-04-28 11:34:00,
2013-04-28 06:35:00,56.8,54.5,27.17,SSE,147,10.1,10.1,92,0.31,,---,0.63,VWS V14.01,2013-04-28 11:35:00,
2013-04-28 06:38:00,56.8,54.5,27.17,South,182,4.9,4.9,92,0.28,,---,0.63,VWS V14.01,2013-04-28 11:38:00,
2013-04-28 06:39:00,56.8,54.5,27.17,South,182,4.9,4.9,92,0.24,,---,0.63,VWS V14.01,2013-04-28 11:39:00,
2013-04-28 06:40:00,56.8,54.5,27.17,South,182,4.9,4.9,92,0.24,,---,0.63,VWS V14.01,2013-04-28 11:40:00,
2013-04-28 06:43:00,56.8,54.5,27.17,WSW,240,2.2,3.1,92,0.24,,---,0.63,VWS V14.01,2013-04-28 11:43:00,
2013-04-28 06:44:00,56.8,54.5,27.17,WSW,240,2.2,2.2,92,0.24,,---,0.63,VWS V14.01,2013-04-28 11:44:00,
2013-04-28 06:45:00,56.8,54.5,27.17,North,357,0.0,0.0,92,0.24,,---,0.63,VWS V14.01,2013-04-28 11:45:00,
2013-04-28 06:48:00,56.8,54.5,27.17,North,357,0.0,0.0,92,0.24,,---,0.63,VWS V14.01,2013-04-28 11:48:00,
2013-04-28 06:49:00,56.8,54.5,27.17,South,190,0.0,0.0,92,0.24,,---,0.63,VWS V14.01,2013-04-28 11:49:00,
2013-04-28 06:51:00,56.8,54.5,27.17,ESE,115,0.0,0.0,92,0.24,,---,0.63,VWS V14.01,2013-04-28 11:51:00,
2013-04-28 06:53:00,56.8,54.5,27.17,SE,140,2.2,2.7,92,0.35,,---,0.75,VWS V14.01,2013-04-28 11:53:00,
2013-04-28 06:54:00,56.8,54.5,27.17,ESE,123,2.7,3.6,92,0.35,,---,0.75,VWS V14.01,2013-04-28 11:54:00,
2013-04-28 06:55:00,56.8,54.5,27.17,South,174,3.1,3.6,92,0.31,,---,0.75,VWS V14.01,2013-04-28 11:55:00,
2013-04-28 06:56:00,56.8,54.5,27.17,South,174,3.1,3.1,92,0.31,,---,0.75,VWS V14.01,2013-04-28 11:56:00,
2013-04-28 06:58:00,56.8,54.5,27.20,SE,136,3.1,3.6,92,0.31,,---,0.75,VWS V14.01,2013-04-28 11:58:00,
2013-04-28 06:59:00,56.8,54.5,27.20,SE,136,3.1,3.1,92,0.31,,---,0.75,VWS V14.01,2013-04-28 11:59:00,
2013-04-28 07:00:00,56.8,54.5,27.20,SSE,166,3.6,3.6,92,0.31,,---,0.75,VWS V14.01,2013-04-28 12:00:00,
2013-04-28 07:01:00,56.7,54.4,27.20,SE,140,4.0,4.0,92,0.31,,---,0.75,VWS V14.01,2013-04-28 12:01:00,
2013-04-28 07:03:00,56.7,54.4,27.20,SE,135,2.7,2.7,92,0.31,,---,0.75,VWS V14.01,2013-04-28 12:03:00,
2013-04-28 07:04:00,56.7,54.4,27.20,SE,135,2.7,2.7,92,0.20,,---,0.75,VWS V14.01,2013-04-28 12:04:00,
2013-04-28 07:05:00,56.7,54.4,27.20,SSE,154,0.0,2.7,92,0.20,,---,0.75,VWS V14.01,2013-04-28 12:05:00,
2013-04-28 07:06:00,56.7,54.4,27.20,SSE,158,0.0,0.0,92,0.20,,---,0.75,VWS V14.01,2013-04-28 12:06:00,
2013-04-28 07:08:00,56.8,54.5,27.20,SE,132,2.2,2.7,92,0.20,,---,0.75,VWS V14.01,2013-04-28 12:08:00,
2013-04-28 07:09:00,56.8,54.5,27.20,South,173,3.1,3.1,92,0.20,,---,0.75,VWS V14.01,2013-04-28 12:09:00,
2013-04-28 07:10:00,56.8,54.5,27.20,SE,145,3.1,3.1,92,0.20,,---,0.75,VWS V14.01,2013-04-28 12:10:00,
2013-04-28 07:11:00,56.8,54.5,27.20,SE,145,3.1,3.1,92,0.24,,---,0.79,VWS V14.01,2013-04-28 12:11:00,
2013-04-28 07:14:00,56.8,54.5,27.20,SE,138,3.6,6.3,92,0.16,,---,0.79,VWS V14.01,2013-04-28 12:14:00,
2013-04-28 07:15:00,56.8,54.5,27.20,SE,138,2.7,3.6,92,0.16,,---,0.79,VWS V14.01,2013-04-28 12:15:00,
2013-04-28 07:16:00,56.8,54.5,27.20,SE,138,2.7,2.7,92,0.16,,---,0.79,VWS V14.01,2013-04-28 12:16:00,
2013-04-28 07:19:00,56.7,54.4,27.20,WSW,245,10.1,10.1,92,0.20,,---,0.83,VWS V14.01,2013-04-28 12:19:00,
2013-04-28 07:20:00,56.7,54.4,27.20,WSW,245,10.1,10.1,92,0.20,,---,0.83,VWS V14.01,2013-04-28 12:20:00,
2013-04-28 07:21:00,56.7,54.4,27.17,SSE,163,3.6,3.6,92,0.20,,---,0.83,VWS V14.01,2013-04-28 12:21:00,
2013-04-28 07:24:00,56.7,54.4,27.17,SE,134,5.8,5.8,92,0.20,,---,0.83,VWS V14.01,2013-04-28 12:24:00,
2013-04-28 07:25:00,56.7,54.4,27.17,SE,134,5.8,5.8,92,0.24,,---,0.87,VWS V14.01,2013-04-28 12:25:00,
2013-04-28 07:26:00,56.5,54.2,27.20,SSE,163,6.3,6.3,92,0.24,,---,0.87,VWS V14.01,2013-04-28 12:26:00,
2013-04-28 07:27:00,56.5,54.2,27.20,SSE,163,6.3,6.3,92,0.24,,---,0.87,VWS V14.01,2013-04-28 12:27:00,
2013-04-28 07:29:00,56.5,54.2,27.20,SSE,163,6.3,6.3,92,0.28,,---,0.91,VWS V14.01,2013-04-28 12:29:00,
2013-04-28 07:30:00,56.5,54.2,27.20,SSE,165,3.1,6.3,92,0.28,,---,0.91,VWS V14.01,2013-04-28 12:30:00,
2013-04-28 07:32:00,56.5,54.2,27.20,SE,134,4.0,4.0,92,0.28,,---,0.91,VWS V14.01,2013-04-28 12:32:00,
2013-04-28 07:34:00,56.5,54.2,27.20,South,191,3.6,3.6,92,0.28,,---,0.91,VWS V14.01,2013-04-28 12:34:00,
2013-04-28 07:36:00,56.5,54.2,27.20,SE,130,2.2,3.6,92,0.31,,---,0.94,VWS V14.01,2013-04-28 12:36:00,
2013-04-28 07:37:00,56.5,54.2,27.20,SE,130,2.2,2.2,92,0.31,,---,0.94,VWS V14.01,2013-04-28 12:37:00,
2013-04-28 07:38:00,56.5,54.2,27.20,SE,130,2.2,2.2,92,0.31,,---,0.94,VWS V14.01,2013-04-28 12:38:00,
2013-04-28 07:39:00,56.5,54.2,27.20,SE,130,2.2,2.2,92,0.31,,---,0.94,VWS V14.01,2013-04-28 12:39:00,
2013-04-28 07:41:00,56.5,54.2,27.20,SSE,155,3.1,3.1,92,0.31,,---,0.94,VWS V14.01,2013-04-28 12:41:00,
2013-04-28 07:42:00,56.5,54.2,27.20,SSE,155,3.1,3.1,92,0.31,,---,0.94,VWS V14.01,2013-04-28 12:42:00,
2013-04-28 07:43:00,56.5,54.2,27.20,SSE,155,3.1,3.1,92,0.31,,---,0.94,VWS V14.01,2013-04-28 12:43:00,
2013-04-28 07:44:00,56.5,54.2,27.20,SSE,165,2.7,2.7,92,0.31,,---,0.94,VWS V14.01,2013-04-28 12:44:00,
2013-04-28 07:45:00,56.5,54.2,27.20,SSE,165,2.7,2.7,92,0.31,,---,0.94,VWS V14.01,2013-04-28 12:45:00,
2013-04-28 07:46:00,56.3,54.0,27.20,SSE,165,2.7,2.7,92,0.31,,---,0.94,VWS V14.01,2013-04-28 12:46:00,
2013-04-28 07:47:00,56.3,54.0,27.20,SE,144,2.2,2.2,92,0.31,,---,0.94,VWS V14.01,2013-04-28 12:47:00,
2013-04-28 07:48:00,56.3,54.0,27.20,SE,142,2.7,2.7,92,0.31,,---,0.94,VWS V14.01,2013-04-28 12:48:00,
2013-04-28 07:49:00,56.3,54.0,27.20,SSE,148,3.1,3.1,92,0.31,,---,0.94,VWS V14.01,2013-04-28 12:49:00,
2013-04-28 07:50:00,56.3,54.0,27.20,SSE,148,3.1,3.1,92,0.31,,---,0.94,VWS V14.01,2013-04-28 12:50:00,
2013-04-28 07:52:00,56.3,54.0,27.20,SE,129,4.0,4.0,92,0.35,,---,0.98,VWS V14.01,2013-04-28 12:52:00,
2013-04-28 07:53:00,56.3,54.0,27.20,SE,129,4.0,4.0,92,0.35,,---,0.98,VWS V14.01,2013-04-28 12:53:00,
2013-04-28 07:54:00,56.3,54.0,27.20,SSE,150,3.6,4.0,92,0.24,,---,0.98,VWS V14.01,2013-04-28 12:54:00,
2013-04-28 07:55:00,56.3,54.0,27.20,SSE,150,3.6,3.6,92,0.24,,---,0.98,VWS V14.01,2013-04-28 12:55:00,
2013-04-28 07:57:00,56.3,54.0,27.20,SSE,150,3.6,3.6,92,0.24,,---,0.98,VWS V14.01,2013-04-28 12:57:00,
2013-04-28 07:58:00,56.3,54.0,27.20,SE,136,3.1,3.6,92,0.24,,---,0.98,VWS V14.01,2013-04-28 12:58:00,
2013-04-28 07:59:00,56.3,54.0,27.17,SE,136,3.1,3.1,92,0.24,,---,0.98,VWS V14.01,2013-04-28 12:59:00,
2013-04-28 08:00:00,56.3,54.0,27.17,SE,128,2.2,3.1,92,0.24,,---,0.98,VWS V14.01,2013-04-28 13:00:00,
2013-04-28 08:01:00,56.3,54.0,27.17,SE,139,2.7,2.7,92,0.24,,---,0.98,VWS V14.01,2013-04-28 13:01:00,
2013-04-28 08:02:00,56.3,54.0,27.17,SE,129,3.1,3.1,92,0.28,,---,1.02,VWS V14.01,2013-04-28 13:02:00,
2013-04-28 08:03:00,56.3,54.0,27.17,SE,129,3.1,3.1,92,0.28,,---,1.02,VWS V14.01,2013-04-28 13:03:00,
2013-04-28 08:04:00,56.3,54.0,27.17,SSE,166,2.2,2.2,92,0.28,,---,1.02,VWS V14.01,2013-04-28 13:04:00,
2013-04-28 08:05:00,56.3,54.0,27.17,SSE,158,3.6,3.6,92,0.28,,---,1.02,VWS V14.01,2013-04-28 13:05:00,
2013-04-28 08:07:00,56.3,54.0,27.17,SSE,158,3.6,3.6,92,0.28,,---,1.02,VWS V14.01,2013-04-28 13:07:00,
2013-04-28 08:08:00,56.3,54.0,27.17,SSE,148,5.8,5.8,92,0.28,,---,1.02,VWS V14.01,2013-04-28 13:08:00,
2013-04-28 08:09:00,56.3,54.0,27.17,South,170,7.6,7.6,92,0.28,,---,1.02,VWS V14.01,2013-04-28 13:09:00,
2013-04-28 08:10:00,56.3,54.0,27.17,South,175,3.6,3.6,92,0.28,,---,1.02,VWS V14.01,2013-04-28 13:10:00,
2013-04-28 08:12:00,56.3,54.0,27.17,SSE,153,3.1,3.1,92,0.24,,---,1.02,VWS V14.01,2013-04-28 13:12:00,
2013-04-28 08:13:00,56.3,54.0,27.17,SSE,153,3.1,3.1,92,0.24,,---,1.02,VWS V14.01,2013-04-28 13:13:00,
2013-04-28 08:15:00,56.3,54.0,27.17,SSE,160,2.7,3.1,92,0.24,,---,1.02,VWS V14.01,2013-04-28 13:15:00,
2013-04-28 08:17:00,56.3,54.0,27.17,South,184,0.0,0.0,92,0.24,,---,1.02,VWS V14.01,2013-04-28 13:17:00,
2013-04-28 08:18:00,56.3,54.0,27.17,West,279,0.0,0.0,92,0.24,,---,1.02,VWS V14.01,2013-04-28 13:18:00,
2013-04-28 08:20:00,56.3,54.0,27.17,SE,141,2.7,2.7,92,0.24,,---,1.06,VWS V14.01,2013-04-28 13:20:00,
2013-04-28 08:21:00,56.3,54.0,27.17,SE,141,2.7,2.7,92,0.24,,---,1.06,VWS V14.01,2013-04-28 13:21:00,
2013-04-28 08:23:00,56.3,54.0,27.17,SE,141,2.7,2.7,92,0.24,,---,1.06,VWS V14.01,2013-04-28 13:23:00,
2013-04-28 08:24:00,56.3,54.0,27.17,SE,141,2.7,2.7,92,0.24,,---,1.06,VWS V14.01,2013-04-28 13:24:00,
2013-04-28 08:25:00,56.3,54.0,27.17,SSE,157,2.2,2.2,92,0.20,,---,1.06,VWS V14.01,2013-04-28 13:25:00,
2013-04-28 08:26:00,56.3,54.0,27.17,SSE,157,2.2,2.2,92,0.20,,---,1.06,VWS V14.01,2013-04-28 13:26:00,
2013-04-28 08:28:00,56.3,54.0,27.17,ESE,114,2.2,2.2,92,0.16,,---,1.06,VWS V14.01,2013-04-28 13:28:00,
2013-04-28 08:29:00,56.3,54.0,27.17,SE,131,2.7,2.7,92,0.16,,---,1.06,VWS V14.01,2013-04-28 13:29:00,
2013-04-28 08:30:00,56.3,54.0,27.17,SE,131,2.7,2.7,92,0.16,,---,1.06,VWS V14.01,2013-04-28 13:30:00,
2013-04-28 08:31:00,56.3,54.0,27.17,SSE,166,4.9,4.9,92,0.16,,---,1.06,VWS V14.01,2013-04-28 13:31:00,
2013-04-28 08:33:00,56.3,54.0,27.17,SSE,151,2.2,2.2,92,0.16,,---,1.06,VWS V14.01,2013-04-28 13:33:00,
2013-04-28 08:34:00,56.3,54.0,27.17,SSE,151,2.2,2.2,92,0.16,,---,1.06,VWS V14.01,2013-04-28 13:34:00,
2013-04-28 08:36:00,56.3,54.0,27.17,SSE,151,2.2,2.2,92,0.16,,---,1.06,VWS V14.01,2013-04-28 13:36:00,
2013-04-28 08:38:00,56.3,54.0,27.17,SE,124,2.2,2.2,92,0.12,,---,1.06,VWS V14.01,2013-04-28 13:38:00,
2013-04-28 08:39:00,56.3,54.0,27.17,SE,124,2.2,2.2,92,0.12,,---,1.06,VWS V14.01,2013-04-28 13:39:00,
2013-04-28 08:41:00,56.3,54.0,27.17,ESE,112,2.7,2.7,92,0.16,,---,1.10,VWS V14.01,2013-04-28 13:41:00,
2013-04-28 08:43:00,56.3,54.0,27.17,SSE,159,3.6,3.6,92,0.16,,---,1.10,VWS V14.01,2013-04-28 13:43:00,
2013-04-28 08:44:00,56.3,54.0,27.17,SE,135,3.6,3.6,92,0.16,,---,1.10,VWS V14.01,2013-04-28 13:44:00,
2013-04-28 08:46:00,56.3,54.0,27.17,SE,136,4.0,4.0,92,0.16,,---,1.10,VWS V14.01,2013-04-28 13:46:00,
2013-04-28 08:48:00,56.3,54.0,27.17,SE,136,4.0,4.0,92,0.16,,---,1.10,VWS V14.01,2013-04-28 13:48:00,
2013-04-28 08:49:00,56.3,54.0,27.17,South,184,0.0,4.0,92,0.16,,---,1.10,VWS V14.01,2013-04-28 13:49:00,
2013-04-28 08:51:00,56.3,54.0,27.17,South,184,0.0,0.0,92,0.12,,---,1.10,VWS V14.01,2013-04-28 13:51:00,
2013-04-28 08:52:00,56.3,54.0,27.17,ESE,122,2.2,2.2,92,0.12,,---,1.10,VWS V14.01,2013-04-28 13:52:00,
2013-04-28 08:54:00,56.3,54.0,27.17,SSE,150,0.0,3.1,92,0.12,,---,1.10,VWS V14.01,2013-04-28 13:54:00,
2013-04-28 08:56:00,56.7,54.7,27.17,SSE,150,0.0,0.0,93,0.12,,---,1.10,VWS V14.01,2013-04-28 13:56:00,
2013-04-28 08:57:00,56.7,54.7,27.17,SSW,205,3.1,3.1,93,0.12,,---,1.10,VWS V14.01,2013-04-28 13:57:00,
2013-04-28 08:59:00,56.7,54.7,27.17,SSW,205,3.1,3.1,93,0.12,,---,1.10,VWS V14.01,2013-04-28 13:59:00,
2013-04-28 09:01:00,56.7,54.7,27.17,SSE,154,0.0,0.0,93,0.12,,---,1.10,VWS V14.01,2013-04-28 14:01:00,
2013-04-28 09:02:00,56.7,54.7,27.17,SSE,154,0.0,0.0,93,0.12,,---,1.10,VWS V14.01,2013-04-28 14:02:00,
2013-04-28 09:04:00,56.7,54.7,27.17,SSE,154,0.0,0.0,93,0.08,,---,1.10,VWS V14.01,2013-04-28 14:04:00,
2013-04-28 09:06:00,56.7,54.7,27.17,SSE,154,0.0,0.0,93,0.08,,---,1.10,VWS V14.01,2013-04-28 14:06:00,
2013-04-28 09:07:00,56.7,54.7,27.17,SSE,154,0.0,0.0,93,0.08,,---,1.10,VWS V14.01,2013-04-28 14:07:00,
2013-04-28 09:09:00,56.7,54.7,27.17,South,170,3.6,4.9,93,0.08,,---,1.10,VWS V14.01,2013-04-28 14:09:00,
2013-04-28 09:10:00,56.7,54.7,27.17,South,170,3.6,3.6,93,0.08,,---,1.10,VWS V14.01,2013-04-28 14:10:00,
2013-04-28 09:11:00,56.7,54.7,27.17,SE,144,6.3,6.3,93,0.08,,---,1.10,VWS V14.01,2013-04-28 14:11:00,
2013-04-28 09:12:00,56.7,54.7,27.17,SE,144,6.3,6.3,93,0.08,,---,1.10,VWS V14.01,2013-04-28 14:12:00,
2013-04-28 09:14:00,56.7,54.4,27.17,SE,132,3.1,6.3,92,0.08,,---,1.10,VWS V14.01,2013-04-28 14:14:00,
2013-04-28 09:15:00,56.7,54.4,27.17,SSE,153,5.4,5.4,92,0.08,,---,1.10,VWS V14.01,2013-04-28 14:15:00,
2013-04-28 09:16:00,56.7,54.4,27.17,SSE,153,5.4,5.4,92,0.08,,---,1.10,VWS V14.01,2013-04-28 14:16:00,
2013-04-28 09:17:00,56.7,54.4,27.17,SSE,153,5.4,5.4,92,0.08,,---,1.10,VWS V14.01,2013-04-28 14:17:00,
2013-04-28 09:19:00,56.7,54.4,27.17,SE,139,5.8,5.8,92,0.08,,---,1.10,VWS V14.01,2013-04-28 14:19:00,
2013-04-28 09:20:00,56.7,54.4,27.17,SE,135,3.6,3.6,92,0.04,,---,1.10,VWS V14.01,2013-04-28 14:20:00,
2013-04-28 09:21:00,56.7,54.4,27.17,SE,135,3.6,3.6,92,0.04,,---,1.10,VWS V14.01,2013-04-28 14:21:00,
2013-04-28 09:22:00,56.7,54.4,27.17,South,171,3.6,3.6,92,0.04,,---,1.10,VWS V14.01,2013-04-28 14:22:00,
2013-04-28 09:24:00,56.7,54.4,27.17,South,171,3.6,3.6,92,0.04,,---,1.10,VWS V14.01,2013-04-28 14:24:00,
2013-04-28 09:25:00,56.7,54.4,27.17,South,171,3.6,3.6,92,0.04,,---,1.10,VWS V14.01,2013-04-28 14:25:00,
2013-04-28 09:26:00,56.7,54.4,27.17,South,171,3.6,3.6,92,0.04,,---,1.10,VWS V14.01,2013-04-28 14:26:00,
2013-04-28 09:27:00,56.7,54.4,27.17,SE,133,5.8,5.8,92,0.04,,---,1.10,VWS V14.01,2013-04-28 14:27:00,
2013-04-28 09:29:00,56.7,54.4,27.17,SSE,157,3.6,5.8,92,0.04,,---,1.10,VWS V14.01,2013-04-28 14:29:00,
2013-04-28 09:30:00,56.7,54.4,27.17,SSE,157,3.6,3.6,92,0.04,,---,1.10,VWS V14.01,2013-04-28 14:30:00,
2013-04-28 09:31:00,56.7,54.4,27.17,SSE,157,3.6,3.6,92,0.04,,---,1.10,VWS V14.01,2013-04-28 14:31:00,
2013-04-28 09:32:00,56.7,54.4,27.17,SSE,157,3.6,3.6,92,0.04,,---,1.10,VWS V14.01,2013-04-28 14:32:00,
2013-04-28 09:35:00,56.3,54.0,27.17,SSE,160,7.6,7.6,92,0.04,,---,1.10,VWS V14.01,2013-04-28 14:35:00,
2013-04-28 09:36:00,56.3,54.0,27.17,SSE,160,7.6,7.6,92,0.08,,---,1.14,VWS V14.01,2013-04-28 14:36:00,
2013-04-28 09:37:00,56.3,54.0,27.17,SSE,160,7.6,7.6,92,0.08,,---,1.14,VWS V14.01,2013-04-28 14:37:00,
2013-04-28 09:40:00,56.3,54.0,27.17,ENE,71,4.5,4.5,92,0.08,,---,1.14,VWS V14.01,2013-04-28 14:40:00,
2013-04-28 09:41:00,56.3,54.0,27.17,ENE,71,4.5,4.5,92,0.04,,---,1.14,VWS V14.01,2013-04-28 14:41:00,
2013-04-28 09:42:00,56.3,54.0,27.17,ENE,71,4.5,4.5,92,0.04,,---,1.14,VWS V14.01,2013-04-28 14:42:00,
2013-04-28 09:45:00,56.3,54.0,27.17,South,172,6.3,6.3,92,0.04,,---,1.14,VWS V14.01,2013-04-28 14:45:00,
2013-04-28 09:46:00,56.3,54.0,27.17,SE,139,3.1,3.1,92,0.04,,---,1.14,VWS V14.01,2013-04-28 14:46:00,
2013-04-28 09:47:00,56.3,54.0,27.17,SSE,168,3.1,3.1,92,0.04,,---,1.14,VWS V14.01,2013-04-28 14:47:00,
2013-04-28 09:51:00,56.3,54.0,27.17,SE,140,4.0,4.0,92,0.08,,---,1.18,VWS V14.01,2013-04-28 14:51:00,
2013-04-28 09:52:00,56.3,54.0,27.17,SE,140,4.0,4.0,92,0.08,,---,1.18,VWS V14.01,2013-04-28 14:52:00,
2013-04-28 09:53:00,56.3,54.0,27.17,SE,140,4.0,4.0,92,0.08,,---,1.18,VWS V14.01,2013-04-28 14:53:00,
2013-04-28 09:56:00,56.3,54.0,27.17,SSE,150,4.0,4.0,92,0.08,,---,1.18,VWS V14.01,2013-04-28 14:56:00,
2013-04-28 09:57:00,56.3,54.0,27.17,SSE,150,4.0,4.0,92,0.08,,---,1.18,VWS V14.01,2013-04-28 14:57:00,
2013-04-28 09:58:00,56.3,54.0,27.17,South,182,3.6,3.6,92,0.08,,---,1.18,VWS V14.01,2013-04-28 14:58:00,
2013-04-28 10:01:00,56.1,53.8,27.17,SSE,167,3.6,3.6,92,0.20,,---,1.30,VWS V14.01,2013-04-28 15:01:00,
2013-04-28 10:02:00,56.1,53.8,27.17,SE,138,3.1,3.6,92,0.20,,---,1.30,VWS V14.01,2013-04-28 15:02:00,
2013-04-28 10:03:00,56.1,53.8,27.17,SE,140,3.1,3.1,92,0.20,,---,1.30,VWS V14.01,2013-04-28 15:03:00,
2013-04-28 10:06:00,56.1,53.8,27.17,SE,140,3.1,3.1,92,0.20,,---,1.30,VWS V14.01,2013-04-28 15:06:00,
2013-04-28 10:07:00,56.1,53.8,27.17,SE,140,3.1,3.1,92,0.20,,---,1.30,VWS V14.01,2013-04-28 15:07:00,
2013-04-28 10:08:00,56.1,53.8,27.17,South,184,3.6,3.6,92,0.20,,---,1.30,VWS V14.01,2013-04-28 15:08:00,
2013-04-28 10:11:00,56.5,54.5,27.17,South,174,6.3,6.3,93,0.20,,---,1.30,VWS V14.01,2013-04-28 15:11:00,
2013-04-28 10:12:00,56.5,54.5,27.17,SE,145,2.7,2.7,93,0.20,,---,1.30,VWS V14.01,2013-04-28 15:12:00,
2013-04-28 10:13:00,56.5,54.5,27.17,SSE,166,2.7,2.7,93,0.20,,---,1.30,VWS V14.01,2013-04-28 15:13:00,
2013-04-28 10:16:00,56.5,54.5,27.17,SSE,163,5.8,5.8,93,0.24,,---,1.34,VWS V14.01,2013-04-28 15:16:00,
2013-04-28 10:17:00,56.8,54.8,27.17,SSE,163,5.8,5.8,93,0.24,,---,1.34,VWS V14.01,2013-04-28 15:17:00,
2013-04-28 10:18:00,56.8,54.8,27.17,SSE,163,5.8,5.8,93,0.24,,---,1.34,VWS V14.01,2013-04-28 15:18:00,
2013-04-28 10:21:00,56.8,54.8,27.17,ESE,122,3.6,3.6,93,0.24,,---,1.34,VWS V14.01,2013-04-28 15:21:00,
2013-04-28 10:22:00,56.8,54.8,27.17,ESE,122,3.6,3.6,93,0.24,,---,1.34,VWS V14.01,2013-04-28 15:22:00,
2013-04-28 10:23:00,56.8,54.8,27.17,ESE,122,3.6,3.6,93,0.24,,---,1.34,VWS V14.01,2013-04-28 15:23:00,
2013-04-28 10:27:00,56.8,54.8,27.17,SSE,150,8.3,8.3,93,0.24,,---,1.34,VWS V14.01,2013-04-28 15:27:00,
2013-04-28 10:28:00,56.8,54.8,27.17,SE,146,3.6,8.3,93,0.24,,---,1.34,VWS V14.01,2013-04-28 15:28:00,
2013-04-28 10:32:00,57.0,55.0,27.17,SSE,150,4.0,4.0,93,0.24,,---,1.34,VWS V14.01,2013-04-28 15:32:00,
2013-04-28 10:33:00,57.0,55.0,27.17,South,176,6.3,6.3,93,0.24,,---,1.34,VWS V14.01,2013-04-28 15:33:00,
2013-04-28 10:37:00,57.0,55.0,27.17,SE,143,6.3,6.3,93,0.20,,---,1.34,VWS V14.01,2013-04-28 15:37:00,
2013-04-28 10:38:00,57.0,55.0,27.17,SE,138,8.1,8.1,93,0.20,,---,1.34,VWS V14.01,2013-04-28 15:38:00,
2013-04-28 10:42:00,57.0,54.7,27.17,ESE,121,8.7,8.7,92,0.20,,---,1.34,VWS V14.01,2013-04-28 15:42:00,
2013-04-28 10:43:00,57.0,54.7,27.17,ESE,121,8.7,8.7,92,0.20,,---,1.34,VWS V14.01,2013-04-28 15:43:00,
2013-04-28 10:44:00,57.0,54.7,27.17,SE,145,5.4,8.7,92,0.20,,---,1.34,VWS V14.01,2013-04-28 15:44:00,
2013-04-28 10:47:00,57.0,54.7,27.17,SE,136,8.1,8.1,92,0.20,,---,1.34,VWS V14.01,2013-04-28 15:47:00,
2013-04-28 10:48:00,57.0,54.7,27.17,SE,136,8.1,8.1,92,0.20,,---,1.34,VWS V14.01,2013-04-28 15:48:00,
2013-04-28 10:49:00,57.0,54.7,27.17,SE,141,4.9,8.1,92,0.20,,---,1.34,VWS V14.01,2013-04-28 15:49:00,
2013-04-28 10:52:00,57.0,54.7,27.17,SE,127,6.3,6.3,92,0.16,,---,1.34,VWS V14.01,2013-04-28 15:52:00,
2013-04-28 10:53:00,57.0,54.7,27.17,SE,127,6.3,6.3,92,0.16,,---,1.34,VWS V14.01,2013-04-28 15:53:00,
2013-04-28 10:54:00,57.0,54.7,27.17,SE,127,6.3,6.3,92,0.16,,---,1.34,VWS V14.01,2013-04-28 15:54:00,
2013-04-28 10:57:00,57.0,54.4,27.17,SSE,153,8.3,8.3,91,0.16,,---,1.34,VWS V14.01,2013-04-28 15:57:00,
2013-04-28 10:58:00,57.0,54.4,27.17,SSE,153,8.3,8.3,91,0.16,,---,1.34,VWS V14.01,2013-04-28 15:58:00,
2013-04-28 10:59:00,57.0,54.4,27.17,SSE,153,8.3,8.3,91,0.16,,---,1.34,VWS V14.01,2013-04-28 15:59:00,
2013-04-28 11:02:00,57.0,54.4,27.17,SSE,153,8.3,8.3,91,0.04,,---,1.34,VWS V14.01,2013-04-28 16:02:00,
2013-04-28 11:03:00,57.2,54.6,27.17,SSE,153,8.3,8.3,91,0.04,,---,1.34,VWS V14.01,2013-04-28 16:03:00,
2013-04-28 11:04:00,57.2,54.6,27.17,South,172,8.7,8.7,91,0.04,,---,1.34,VWS V14.01,2013-04-28 16:04:00,
2013-04-28 11:07:00,57.2,54.6,27.17,SSE,159,4.0,5.4,91,0.04,,---,1.34,VWS V14.01,2013-04-28 16:07:00,
2013-04-28 11:09:00,57.2,54.6,27.17,SSE,159,4.0,4.0,91,0.04,,---,1.34,VWS V14.01,2013-04-28 16:09:00,
2013-04-28 11:10:00,57.2,54.6,27.17,SSE,159,4.0,4.0,91,0.04,,---,1.34,VWS V14.01,2013-04-28 16:10:00,
2013-04-28 11:12:00,57.2,54.6,27.17,SSE,159,4.0,4.0,91,0.04,,---,1.34,VWS V14.01,2013-04-28 16:12:00,
2013-04-28 11:14:00,57.2,54.6,27.17,SSE,166,4.0,4.0,91,0.04,,---,1.34,VWS V14.01,2013-04-28 16:14:00,
2013-04-28 11:15:00,57.2,54.6,27.17,SSE,166,4.0,4.0,91,0.04,,---,1.34,VWS V14.01,2013-04-28 16:15:00,
2013-04-28 11:18:00,57.2,54.6,27.17,SE,146,4.9,4.9,91,0.00,,---,1.34,VWS V14.01,2013-04-28 16:18:00,
2013-04-28 11:19:00,57.4,54.5,27.17,SSE,164,3.1,3.1,90,0.00,,---,1.34,VWS V14.01,2013-04-28 16:19:00,
2013-04-28 11:20:00,57.4,54.5,27.17,SSE,164,3.1,3.1,90,0.00,,---,1.34,VWS V14.01,2013-04-28 16:20:00,
2013-04-28 11:23:00,57.4,54.5,27.17,SE,145,3.6,4.0,90,0.00,,---,1.34,VWS V14.01,2013-04-28 16:23:00,
2013-04-28 11:24:00,57.4,54.5,27.17,SE,145,3.6,3.6,90,0.00,,---,1.34,VWS V14.01,2013-04-28 16:24:00,
2013-04-28 11:25:00,57.4,54.5,27.17,SE,145,3.6,3.6,90,0.00,,---,1.34,VWS V14.01,2013-04-28 16:25:00,
2013-04-28 11:28:00,57.4,54.5,27.17,SE,140,4.0,4.0,90,0.00,,---,1.34,VWS V14.01,2013-04-28 16:28:00,
2013-04-28 11:29:00,57.4,54.5,27.17,South,171,5.4,5.4,90,0.00,,---,1.34,VWS V14.01,2013-04-28 16:29:00,
2013-04-28 11:30:00,57.4,54.5,27.17,South,171,5.4,5.4,90,0.00,,---,1.34,VWS V14.01,2013-04-28 16:30:00,
2013-04-28 11:33:00,57.4,54.5,27.17,SSE,155,2.7,2.7,90,0.00,,---,1.34,VWS V14.01,2013-04-28 16:33:00,
2013-04-28 11:34:00,57.4,54.5,27.17,WSW,246,8.1,8.1,90,0.00,,---,1.34,VWS V14.01,2013-04-28 16:34:00,
2013-04-28 11:35:00,57.4,54.5,27.17,WSW,246,8.1,8.1,90,0.00,,---,1.34,VWS V14.01,2013-04-28 16:35:00,
2013-04-28 11:38:00,57.7,54.8,27.17,South,181,4.0,4.0,90,0.00,,---,1.34,VWS V14.01,2013-04-28 16:38:00,
2013-04-28 11:39:00,57.7,54.8,27.17,South,181,4.0,4.0,90,0.00,,---,1.34,VWS V14.01,2013-04-28 16:39:00,
2013-04-28 11:40:00,57.7,54.8,27.17,South,181,4.0,4.0,90,0.00,,---,1.34,VWS V14.01,2013-04-28 16:40:00,
2013-04-28 11:41:00,57.7,54.8,27.17,South,181,4.0,4.0,90,0.00,,---,1.34,VWS V14.01,2013-04-28 16:41:00,
2013-04-28 11:43:00,57.7,54.8,27.17,SE,142,3.6,4.0,90,0.00,,---,1.34,VWS V14.01,2013-04-28 16:43:00,
2013-04-28 11:44:00,57.7,54.8,27.17,SE,142,3.6,3.6,90,0.00,,---,1.34,VWS V14.01,2013-04-28 16:44:00,
2013-04-28 11:45:00,57.7,54.8,27.17,SSE,164,2.7,3.6,90,0.00,,---,1.34,VWS V14.01,2013-04-28 16:45:00,
2013-04-28 11:46:00,57.7,54.8,27.17,SSE,164,2.7,2.7,90,0.00,,---,1.34,VWS V14.01,2013-04-28 16:46:00,
2013-04-28 11:49:00,57.7,54.8,27.17,SE,137,3.6,3.6,90,0.00,,---,1.34,VWS V14.01,2013-04-28 16:49:00,
2013-04-28 11:50:00,57.6,54.3,27.17,SE,137,3.6,3.6,89,0.00,,---,1.34,VWS V14.01,2013-04-28 16:50:00,
2013-04-28 11:51:00,57.6,54.3,27.17,SSE,154,4.0,4.0,89,0.00,,---,1.34,VWS V14.01,2013-04-28 16:51:00,
2013-04-28 11:54:00,57.6,54.3,27.17,SSE,154,4.0,4.0,89,0.00,,---,1.34,VWS V14.01,2013-04-28 16:54:00,
2013-04-28 11:55:00,57.6,54.3,27.17,South,175,2.7,2.7,89,0.00,,---,1.34,VWS V14.01,2013-04-28 16:55:00,
2013-04-28 11:56:00,57.6,54.3,27.17,South,175,0.0,0.0,89,0.00,,---,1.34,VWS V14.01,2013-04-28 16:56:00,
2013-04-28 11:59:00,57.6,54.3,27.17,South,175,0.0,0.0,89,0.00,,---,1.34,VWS V14.01,2013-04-28 16:59:00,
2013-04-28 12:00:00,57.6,54.3,27.17,SSW,200,7.6,7.6,89,0.00,,---,1.34,VWS V14.01,2013-04-28 17:00:00,
2013-04-28 12:01:00,57.6,54.3,27.17,SE,139,0.0,7.6,89,0.00,,---,1.34,VWS V14.01,2013-04-28 17:01:00,
2013-04-28 12:04:00,57.6,54.3,27.17,South,173,5.4,5.4,89,0.00,,---,1.34,VWS V14.01,2013-04-28 17:04:00,
2013-04-28 12:05:00,57.6,54.3,27.17,South,173,5.4,5.4,89,0.00,,---,1.34,VWS V14.01,2013-04-28 17:05:00,
2013-04-28 12:06:00,57.6,54.3,27.17,South,173,5.4,5.4,89,0.08,,---,1.42,VWS V14.01,2013-04-28 17:06:00,
2013-04-28 12:09:00,57.6,54.3,27.17,South,173,4.0,4.0,89,0.08,,---,1.42,VWS V14.01,2013-04-28 17:09:00,
2013-04-28 12:10:00,57.6,54.3,27.17,SSW,200,3.1,3.1,89,0.08,,---,1.42,VWS V14.01,2013-04-28 17:10:00,
2013-04-28 12:11:00,57.6,54.3,27.17,South,170,0.0,3.1,89,0.08,,---,1.42,VWS V14.01,2013-04-28 17:11:00,
2013-04-28 12:14:00,57.6,54.3,27.17,SSE,151,2.7,2.7,89,0.08,,---,1.42,VWS V14.01,2013-04-28 17:14:00,
2013-04-28 12:15:00,57.6,54.3,27.17,South,172,5.4,5.4,89,0.08,,---,1.42,VWS V14.01,2013-04-28 17:15:00,
2013-04-28 12:16:00,57.6,54.3,27.17,South,172,5.4,5.4,89,0.08,,---,1.42,VWS V14.01,2013-04-28 17:16:00,
2013-04-28 12:20:00,57.6,54.3,27.17,SE,132,3.1,5.4,89,0.08,,---,1.42,VWS V14.01,2013-04-28 17:20:00,
2013-04-28 12:21:00,57.6,54.3,27.17,SE,132,3.1,3.1,89,0.08,,---,1.42,VWS V14.01,2013-04-28 17:21:00,
2013-04-28 12:22:00,57.6,54.3,27.17,South,177,2.2,3.1,89,0.08,,---,1.42,VWS V14.01,2013-04-28 17:22:00,
2013-04-28 12:25:00,57.6,54.3,27.17,SSE,162,0.0,2.7,89,0.08,,---,1.42,VWS V14.01,2013-04-28 17:25:00,
2013-04-28 12:26:00,57.6,54.3,27.17,SSE,162,0.0,0.0,89,0.08,,---,1.42,VWS V14.01,2013-04-28 17:26:00,
2013-04-28 12:27:00,57.4,54.2,27.17,SSE,162,0.0,0.0,89,0.08,,---,1.42,VWS V14.01,2013-04-28 17:27:00,
2013-04-28 12:30:00,57.4,54.2,27.17,South,183,0.0,0.0,89,0.08,,---,1.42,VWS V14.01,2013-04-28 17:30:00,
2013-04-28 12:31:00,57.4,54.2,27.17,South,183,0.0,0.0,89,0.08,,---,1.42,VWS V14.01,2013-04-28 17:31:00,
2013-04-28 12:32:00,57.4,54.2,27.17,South,183,0.0,0.0,89,0.12,,---,1.46,VWS V14.01,2013-04-28 17:32:00,
2013-04-28 12:35:00,57.4,54.2,27.17,South,183,0.0,0.0,89,0.12,,---,1.46,VWS V14.01,2013-04-28 17:35:00,
2013-04-28 12:36:00,57.4,54.2,27.17,South,183,0.0,0.0,89,0.12,,---,1.46,VWS V14.01,2013-04-28 17:36:00,
2013-04-28 12:37:00,57.4,54.2,27.17,South,183,0.0,0.0,89,0.12,,---,1.46,VWS V14.01,2013-04-28 17:37:00,
2013-04-28 12:40:00,57.4,54.2,27.17,South,183,0.0,0.0,89,0.12,,---,1.46,VWS V14.01,2013-04-28 17:40:00,
2013-04-28 12:41:00,57.4,54.2,27.17,South,183,0.0,0.0,89,0.16,,---,1.50,VWS V14.01,2013-04-28 17:41:00,
2013-04-28 12:42:00,57.4,54.2,27.17,South,183,0.0,0.0,89,0.16,,---,1.50,VWS V14.01,2013-04-28 17:42:00,
2013-04-28 12:45:00,57.4,54.2,27.17,South,183,0.0,0.0,89,0.16,,---,1.50,VWS V14.01,2013-04-28 17:45:00,
2013-04-28 12:46:00,57.4,54.2,27.17,South,183,0.0,0.0,89,0.16,,---,1.50,VWS V14.01,2013-04-28 17:46:00,
2013-04-28 12:47:00,57.4,54.2,27.17,South,183,0.0,0.0,89,0.16,,---,1.50,VWS V14.01,2013-04-28 17:47:00,
2013-04-28 12:48:00,57.4,54.2,27.17,South,183,0.0,0.0,89,0.16,,---,1.50,VWS V14.01,2013-04-28 17:48:00,
2013-04-28 12:50:00,57.4,54.2,27.17,South,183,0.0,0.0,89,0.16,,---,1.50,VWS V14.01,2013-04-28 17:50:00,
2013-04-28 12:52:00,57.4,54.2,27.17,South,183,0.0,0.0,89,0.16,,---,1.50,VWS V14.01,2013-04-28 17:52:00,
2013-04-28 12:53:00,57.4,54.2,27.17,South,183,0.0,0.0,89,0.16,,---,1.50,VWS V14.01,2013-04-28 17:53:00,
2013-04-28 12:55:00,57.6,54.7,27.17,South,183,0.0,0.0,90,0.16,,---,1.50,VWS V14.01,2013-04-28 17:55:00,
2013-04-28 12:57:00,57.6,54.7,27.17,South,183,0.0,0.0,90,0.16,,---,1.50,VWS V14.01,2013-04-28 17:57:00,
2013-04-28 12:58:00,57.6,54.7,27.17,South,183,0.0,0.0,90,0.16,,---,1.50,VWS V14.01,2013-04-28 17:58:00,
2013-04-28 13:00:00,57.6,54.7,27.17,South,184,0.0,0.0,90,0.16,,---,1.50,VWS V14.01,2013-04-28 18:00:00,
2013-04-28 13:02:00,57.6,54.7,27.17,South,183,0.0,0.0,90,0.20,,---,1.54,VWS V14.01,2013-04-28 18:02:00,
2013-04-28 13:03:00,57.6,54.7,27.17,South,183,0.0,0.0,90,0.20,,---,1.54,VWS V14.01,2013-04-28 18:03:00,
2013-04-28 13:06:00,57.6,54.7,27.14,South,183,0.0,0.0,90,0.20,,---,1.54,VWS V14.01,2013-04-28 18:06:00,
2013-04-28 13:07:00,57.6,54.7,27.14,South,183,0.0,0.0,90,0.16,,---,1.57,VWS V14.01,2013-04-28 18:07:00,
2013-04-28 13:08:00,57.6,54.7,27.14,South,183,0.0,0.0,90,0.16,,---,1.57,VWS V14.01,2013-04-28 18:08:00,
2013-04-28 13:11:00,57.6,54.7,27.14,SSW,200,3.1,3.1,90,0.16,,---,1.57,VWS V14.01,2013-04-28 18:11:00,
2013-04-28 13:12:00,57.6,54.7,27.14,SSW,200,3.1,3.1,90,0.16,,---,1.57,VWS V14.01,2013-04-28 18:12:00,
2013-04-28 13:14:00,57.6,54.7,27.14,SSW,200,3.1,3.1,90,0.16,,---,1.57,VWS V14.01,2013-04-28 18:14:00,
2013-04-28 13:16:00,57.6,54.7,27.14,SSE,157,0.0,0.0,90,0.16,,---,1.57,VWS V14.01,2013-04-28 18:16:00,
2013-04-28 13:17:00,57.6,54.7,27.14,SSE,157,0.0,0.0,90,0.16,,---,1.57,VWS V14.01,2013-04-28 18:17:00,
2013-04-28 13:18:00,57.6,54.7,27.14,SSE,157,0.0,0.0,90,0.16,,---,1.57,VWS V14.01,2013-04-28 18:18:00,
2013-04-28 13:20:00,57.6,54.7,27.14,SSE,157,0.0,0.0,90,0.16,,---,1.57,VWS V14.01,2013-04-28 18:20:00,
2013-04-28 13:21:00,57.6,54.7,27.14,SSE,157,0.0,0.0,90,0.16,,---,1.57,VWS V14.01,2013-04-28 18:21:00,
2013-04-28 13:23:00,57.6,54.7,27.14,SSE,160,2.2,2.2,90,0.16,,---,1.57,VWS V14.01,2013-04-28 18:23:00,
2013-04-28 13:25:00,57.6,54.7,27.14,SSE,160,0.0,0.0,90,0.16,,---,1.57,VWS V14.01,2013-04-28 18:25:00,
2013-04-28 13:26:00,57.6,54.7,27.14,SSE,156,0.0,0.0,90,0.16,,---,1.57,VWS V14.01,2013-04-28 18:26:00,
2013-04-28 13:28:00,57.6,54.7,27.14,South,180,0.0,0.0,90,0.24,,---,1.65,VWS V14.01,2013-04-28 18:28:00,
2013-04-28 13:30:00,57.6,54.7,27.11,South,180,0.0,0.0,90,0.24,,---,1.65,VWS V14.01,2013-04-28 18:30:00,
2013-04-28 13:32:00,57.6,54.7,27.11,South,180,0.0,0.0,90,0.20,,---,1.65,VWS V14.01,2013-04-28 18:32:00,
2013-04-28 13:33:00,57.6,54.7,27.11,South,180,0.0,0.0,90,0.20,,---,1.65,VWS V14.01,2013-04-28 18:33:00,
2013-04-28 13:35:00,57.6,54.7,27.11,South,180,0.0,0.0,90,0.20,,---,1.65,VWS V14.01,2013-04-28 18:35:00,
2013-04-28 13:37:00,57.6,54.7,27.11,South,180,0.0,0.0,90,0.20,,---,1.65,VWS V14.01,2013-04-28 18:37:00,
2013-04-28 13:38:00,57.6,54.7,27.11,South,180,0.0,0.0,90,0.20,,---,1.65,VWS V14.01,2013-04-28 18:38:00,
2013-04-28 13:40:00,57.6,54.7,27.11,South,180,2.2,2.2,90,0.20,,---,1.65,VWS V14.01,2013-04-28 18:40:00,
2013-04-28 13:42:00,57.6,54.7,27.11,South,180,0.0,0.0,90,0.16,,---,1.65,VWS V14.01,2013-04-28 18:42:00,
2013-04-28 13:43:00,57.6,54.7,27.11,South,180,0.0,0.0,90,0.16,,---,1.65,VWS V14.01,2013-04-28 18:43:00,
2013-04-28 13:45:00,57.6,54.7,27.11,South,180,0.0,0.0,90,0.16,,---,1.65,VWS V14.01,2013-04-28 18:45:00,
2013-04-28 13:47:00,57.6,54.7,27.11,South,176,0.0,2.7,90,0.16,,---,1.65,VWS V14.01,2013-04-28 18:47:00,
2013-04-28 13:48:00,57.6,54.7,27.11,South,176,0.0,0.0,90,0.16,,---,1.65,VWS V14.01,2013-04-28 18:48:00,
2013-04-28 13:50:00,57.6,54.7,27.11,South,176,0.0,0.0,90,0.16,,---,1.65,VWS V14.01,2013-04-28 18:50:00,
2013-04-28 13:53:00,57.6,54.7,27.11,South,169,2.7,2.7,90,0.16,,---,1.65,VWS V14.01,2013-04-28 18:53:00,
2013-04-28 13:54:00,57.6,54.7,27.11,South,169,2.2,2.2,90,0.24,,---,1.73,VWS V14.01,2013-04-28 18:54:00,
2013-04-28 13:56:00,57.6,54.7,27.11,South,169,0.0,0.0,90,0.24,,---,1.73,VWS V14.01,2013-04-28 18:56:00,
2013-04-28 13:58:00,57.6,54.7,27.11,SSE,164,2.7,2.7,90,0.24,,---,1.73,VWS V14.01,2013-04-28 18:58:00,
2013-04-28 13:59:00,57.6,54.7,27.11,South,180,3.1,3.1,90,0.24,,---,1.73,VWS V14.01,2013-04-28 18:59:00,
2013-04-28 14:01:00,57.6,54.7,27.11,South,181,0.0,0.0,90,0.24,,---,1.73,VWS V14.01,2013-04-28 19:01:00,
2013-04-28 14:03:00,57.6,54.7,27.11,South,181,0.0,0.0,90,0.20,,---,1.73,VWS V14.01,2013-04-28 19:03:00,
2013-04-28 14:04:00,57.7,55.1,27.11,South,181,0.0,0.0,91,0.20,,---,1.73,VWS V14.01,2013-04-28 19:04:00,
2013-04-28 14:06:00,57.9,55.3,27.11,SSE,165,2.7,2.7,91,0.24,,---,1.77,VWS V14.01,2013-04-28 19:06:00,
2013-04-28 14:08:00,57.9,55.3,27.11,SSE,160,3.1,3.1,91,0.20,,---,1.77,VWS V14.01,2013-04-28 19:08:00,
2013-04-28 14:09:00,57.9,55.3,27.11,SSE,160,0.0,0.0,91,0.20,,---,1.77,VWS V14.01,2013-04-28 19:09:00,
2013-04-28 14:11:00,57.9,55.3,27.11,SSE,159,3.6,3.6,91,0.20,,---,1.77,VWS V14.01,2013-04-28 19:11:00,
2013-04-28 14:13:00,57.9,55.3,27.11,SSE,159,3.6,3.6,91,0.20,,---,1.77,VWS V14.01,2013-04-28 19:13:00,
2013-04-28 14:14:00,57.9,55.3,27.11,SSE,159,3.6,3.6,91,0.20,,---,1.77,VWS V14.01,2013-04-28 19:14:00,
2013-04-28 14:16:00,57.9,55.3,27.11,SSE,167,2.2,2.2,91,0.20,,---,1.77,VWS V14.01,2013-04-28 19:16:00,
2013-04-28 14:18:00,57.9,55.3,27.11,South,182,2.2,3.6,91,0.20,,---,1.77,VWS V14.01,2013-04-28 19:18:00,
2013-04-28 14:19:00,57.9,55.3,27.11,South,182,2.2,2.2,91,0.20,,---,1.77,VWS V14.01,2013-04-28 19:19:00,
2013-04-28 14:20:00,57.9,55.3,27.11,SE,143,4.0,4.0,91,0.20,,---,1.77,VWS V14.01,2013-04-28 19:20:00,
2013-04-28 14:21:00,57.9,55.3,27.11,SSE,153,2.7,2.7,91,0.20,,---,1.77,VWS V14.01,2013-04-28 19:21:00,
2013-04-28 14:24:00,57.9,55.3,27.11,SE,138,4.9,4.9,91,0.24,,---,1.81,VWS V14.01,2013-04-28 19:24:00,
2013-04-28 14:25:00,57.9,55.3,27.11,South,178,3.6,4.9,91,0.24,,---,1.81,VWS V14.01,2013-04-28 19:25:00,
2013-04-28 14:27:00,57.9,55.3,27.11,South,178,2.7,2.7,91,0.24,,---,1.81,VWS V14.01,2013-04-28 19:27:00,
2013-04-28 14:29:00,57.9,55.3,27.11,SSE,147,2.7,2.7,91,0.16,,---,1.81,VWS V14.01,2013-04-28 19:29:00,
2013-04-28 14:30:00,58.5,56.2,27.11,SSE,147,2.7,2.7,92,0.16,,---,1.81,VWS V14.01,2013-04-28 19:30:00,
2013-04-28 14:32:00,58.5,56.2,27.11,SSE,147,2.7,2.7,92,0.20,,---,1.85,VWS V14.01,2013-04-28 19:32:00,
2013-04-28 14:34:00,58.5,56.2,27.11,South,169,3.1,3.1,92,0.20,,---,1.85,VWS V14.01,2013-04-28 19:34:00,
2013-04-28 14:35:00,58.5,56.2,27.11,SSE,158,2.7,2.7,92,0.20,,---,1.85,VWS V14.01,2013-04-28 19:35:00,
2013-04-28 14:37:00,58.5,56.2,27.11,SSE,151,0.0,2.7,92,0.20,,---,1.85,VWS V14.01,2013-04-28 19:37:00,
2013-04-28 14:39:00,58.6,56.3,27.11,SSE,162,0.0,0.0,92,0.20,,---,1.85,VWS V14.01,2013-04-28 19:39:00,
2013-04-28 14:40:00,58.6,56.3,27.11,SE,144,0.0,0.0,92,0.20,,---,1.85,VWS V14.01,2013-04-28 19:40:00,
2013-04-28 14:41:00,58.6,56.3,27.11,SE,144,0.0,0.0,92,0.20,,---,1.85,VWS V14.01,2013-04-28 19:41:00,
2013-04-28 14:42:00,58.6,56.3,27.11,South,190,2.2,2.2,92,0.20,,---,1.85,VWS V14.01,2013-04-28 19:42:00,
2013-04-28 14:44:00,58.6,56.3,27.11,SSE,147,0.0,0.0,92,0.20,,---,1.85,VWS V14.01,2013-04-28 19:44:00,
2013-04-28 14:45:00,58.6,56.3,27.11,SSE,147,0.0,0.0,92,0.20,,---,1.85,VWS V14.01,2013-04-28 19:45:00,
2013-04-28 14:46:00,58.6,56.3,27.11,SSE,147,0.0,0.0,92,0.20,,---,1.85,VWS V14.01,2013-04-28 19:46:00,
2013-04-28 14:47:00,58.6,56.3,27.11,SE,140,2.7,2.7,92,0.20,,---,1.85,VWS V14.01,2013-04-28 19:47:00,
2013-04-28 14:49:00,58.6,56.3,27.11,SE,140,0.0,0.0,92,0.20,,---,1.85,VWS V14.01,2013-04-28 19:49:00,
2013-04-28 14:50:00,58.6,56.3,27.11,SE,140,0.0,0.0,92,0.20,,---,1.85,VWS V14.01,2013-04-28 19:50:00,
2013-04-28 14:51:00,58.6,56.3,27.11,SE,140,0.0,0.0,92,0.20,,---,1.85,VWS V14.01,2013-04-28 19:51:00,
2013-04-28 14:53:00,58.6,56.3,27.11,SE,140,2.7,2.7,92,0.20,,---,1.85,VWS V14.01,2013-04-28 19:53:00,
2013-04-28 14:54:00,58.6,56.3,27.11,SSE,159,0.0,0.0,92,0.12,,---,1.85,VWS V14.01,2013-04-28 19:54:00,
2013-04-28 14:55:00,58.6,56.3,27.11,SSE,159,0.0,0.0,92,0.12,,---,1.85,VWS V14.01,2013-04-28 19:55:00,
2013-04-28 14:56:00,58.6,56.3,27.11,SSE,159,0.0,0.0,92,0.12,,---,1.85,VWS V14.01,2013-04-28 19:56:00,
2013-04-28 14:58:00,58.6,56.3,27.11,SSE,162,2.7,2.7,92,0.12,,---,1.85,VWS V14.01,2013-04-28 19:58:00,
2013-04-28 14:59:00,58.6,56.3,27.11,SSE,155,3.1,3.1,92,0.12,,---,1.85,VWS V14.01,2013-04-28 19:59:00,
2013-04-28 15:00:00,58.6,56.3,27.11,South,170,3.6,3.6,92,0.12,,---,1.85,VWS V14.01,2013-04-28 20:00:00,
2013-04-28 15:01:00,58.6,56.3,27.11,SE,141,3.6,3.6,92,0.12,,---,1.85,VWS V14.01,2013-04-28 20:01:00,
2013-04-28 15:03:00,58.6,56.3,27.11,SE,146,0.0,0.0,92,0.12,,---,1.85,VWS V14.01,2013-04-28 20:03:00,
2013-04-28 15:04:00,58.6,56.3,27.11,South,174,3.6,3.6,92,0.12,,---,1.85,VWS V14.01,2013-04-28 20:04:00,
2013-04-28 15:05:00,58.6,56.3,27.11,South,174,3.6,3.6,92,0.08,,---,1.85,VWS V14.01,2013-04-28 20:05:00,
2013-04-28 15:06:00,58.6,56.3,27.11,SSE,147,2.7,2.7,92,0.08,,---,1.85,VWS V14.01,2013-04-28 20:06:00,
2013-04-28 15:08:00,58.6,56.3,27.11,SSE,147,2.7,2.7,92,0.08,,---,1.85,VWS V14.01,2013-04-28 20:08:00,
2013-04-28 15:09:00,59.2,56.9,27.11,South,178,4.9,4.9,92,0.08,,---,1.85,VWS V14.01,2013-04-28 20:09:00,
2013-04-28 15:11:00,59.2,56.9,27.11,South,191,5.4,5.4,92,0.08,,---,1.85,VWS V14.01,2013-04-28 20:11:00,
2013-04-28 15:12:00,59.2,56.9,27.11,South,191,5.4,5.4,92,0.08,,---,1.85,VWS V14.01,2013-04-28 20:12:00,
2013-04-28 15:13:00,59.0,56.7,27.11,South,191,5.4,5.4,92,0.08,,---,1.85,VWS V14.01,2013-04-28 20:13:00,
2013-04-28 15:15:00,59.0,56.7,27.11,South,191,5.4,5.4,92,0.12,,---,1.89,VWS V14.01,2013-04-28 20:15:00,
2013-04-28 15:16:00,59.0,56.7,27.11,South,182,0.0,0.0,92,0.12,,---,1.89,VWS V14.01,2013-04-28 20:16:00,
2013-04-28 15:17:00,59.0,56.7,27.11,South,182,0.0,0.0,92,0.12,,---,1.89,VWS V14.01,2013-04-28 20:17:00,
2013-04-28 15:18:00,59.0,56.7,27.11,South,182,0.0,0.0,92,0.12,,---,1.89,VWS V14.01,2013-04-28 20:18:00,
2013-04-28 15:20:00,59.0,56.7,27.11,SSE,149,3.6,3.6,92,0.12,,---,1.89,VWS V14.01,2013-04-28 20:20:00,
2013-04-28 15:21:00,59.0,56.7,27.11,SSE,149,3.6,3.6,92,0.12,,---,1.89,VWS V14.01,2013-04-28 20:21:00,
2013-04-28 15:22:00,59.0,56.7,27.11,SSE,149,3.6,3.6,92,0.12,,---,1.89,VWS V14.01,2013-04-28 20:22:00,
2013-04-28 15:23:00,59.0,56.7,27.11,SSE,149,3.6,3.6,92,0.08,,---,1.89,VWS V14.01,2013-04-28 20:23:00,
2013-04-28 15:25:00,59.0,56.7,27.11,SSE,149,3.6,3.6,92,0.08,,---,1.89,VWS V14.01,2013-04-28 20:25:00,
2013-04-28 15:26:00,59.0,56.7,27.11,SE,144,3.6,3.6,92,0.08,,---,1.89,VWS V14.01,2013-04-28 20:26:00,
2013-04-28 15:27:00,59.0,56.7,27.11,SE,144,3.6,3.6,92,0.08,,---,1.89,VWS V14.01,2013-04-28 20:27:00,
2013-04-28 15:29:00,59.0,56.7,27.11,SSE,157,3.1,3.6,92,0.08,,---,1.89,VWS V14.01,2013-04-28 20:29:00,
2013-04-28 15:31:00,59.0,56.7,27.11,SSE,147,3.1,3.1,92,0.08,,---,1.89,VWS V14.01,2013-04-28 20:31:00,
2013-04-28 15:32:00,59.0,56.7,27.11,SSE,152,3.6,3.6,92,0.04,,---,1.89,VWS V14.01,2013-04-28 20:32:00,
2013-04-28 15:33:00,59.0,56.7,27.11,SSE,152,3.6,3.6,92,0.04,,---,1.89,VWS V14.01,2013-04-28 20:33:00,
2013-04-28 15:34:00,59.0,56.7,27.11,SSE,152,3.6,3.6,92,0.04,,---,1.89,VWS V14.01,2013-04-28 20:34:00,
2013-04-28 15:36:00,59.0,56.7,27.11,SSE,152,3.6,3.6,92,0.08,,---,1.93,VWS V14.01,2013-04-28 20:36:00,
2013-04-28 15:38:00,59.0,56.7,27.11,SSE,162,2.7,4.0,92,0.08,,---,1.93,VWS V14.01,2013-04-28 20:38:00,
2013-04-28 15:39:00,59.0,56.7,27.11,SSE,153,4.0,4.0,92,0.08,,---,1.93,VWS V14.01,2013-04-28 20:39:00,
2013-04-28 15:41:00,58.8,56.5,27.11,SSE,165,5.4,5.4,92,0.08,,---,1.93,VWS V14.01,2013-04-28 20:41:00,
2013-04-28 15:43:00,58.8,56.5,27.02,SSE,168,4.0,4.0,92,0.08,,---,1.93,VWS V14.01,2013-04-28 20:43:00,
2013-04-28 15:44:00,58.8,56.5,27.02,SE,132,5.4,5.4,92,0.08,,---,1.93,VWS V14.01,2013-04-28 20:44:00,
2013-04-28 15:46:00,58.8,56.5,27.02,SSE,153,5.4,5.4,92,0.08,,---,1.93,VWS V14.01,2013-04-28 20:46:00,
2013-04-28 15:48:00,58.8,56.5,27.02,SE,130,4.9,4.9,92,0.08,,---,1.93,VWS V14.01,2013-04-28 20:48:00,
2013-04-28 15:49:00,58.8,56.5,27.02,SE,136,4.0,4.0,92,0.08,,---,1.93,VWS V14.01,2013-04-28 20:49:00,
2013-04-28 15:51:00,58.6,56.6,27.02,South,180,5.4,5.4,93,0.08,,---,1.93,VWS V14.01,2013-04-28 20:51:00,
2013-04-28 15:53:00,58.6,56.6,27.02,SSE,164,4.9,5.4,93,0.08,,---,1.93,VWS V14.01,2013-04-28 20:53:00,
2013-04-28 15:54:00,58.6,56.6,27.02,South,182,3.1,4.9,93,0.08,,---,1.93,VWS V14.01,2013-04-28 20:54:00,
2013-04-28 15:55:00,58.6,56.6,27.02,South,182,3.1,4.9,93,0.08,,---,1.93,VWS V14.01,2013-04-28 20:55:00,
2013-04-28 15:56:00,58.6,56.6,27.02,SE,145,5.8,6.3,93,0.08,,---,1.93,VWS V14.01,2013-04-28 20:56:00,
2013-04-28 15:58:00,58.6,56.6,27.02,South,173,5.8,5.8,93,0.08,,---,1.93,VWS V14.01,2013-04-28 20:58:00,
2013-04-28 15:59:00,58.6,56.6,27.02,South,173,5.8,5.8,93,0.08,,---,1.93,VWS V14.01,2013-04-28 20:59:00,
2013-04-28 16:00:00,58.6,56.6,27.02,South,173,5.8,5.8,93,0.08,,---,1.93,VWS V14.01,2013-04-28 21:00:00,
2013-04-28 16:01:00,58.6,56.6,27.02,SE,146,4.0,4.0,93,0.12,,---,1.97,VWS V14.01,2013-04-28 21:01:00,
2013-04-28 16:03:00,58.6,56.6,27.02,ESE,121,6.3,6.3,93,0.12,,---,1.97,VWS V14.01,2013-04-28 21:03:00,
2013-04-28 16:04:00,58.6,56.6,27.02,South,170,8.3,8.3,93,0.12,,---,1.97,VWS V14.01,2013-04-28 21:04:00,
2013-04-28 16:05:00,58.6,56.6,27.02,South,184,5.8,5.8,93,0.12,,---,1.97,VWS V14.01,2013-04-28 21:05:00,
2013-04-28 16:06:00,58.6,56.6,27.02,South,172,5.8,5.8,93,0.12,,---,1.97,VWS V14.01,2013-04-28 21:06:00,
2013-04-28 16:07:00,58.5,56.5,27.02,SSE,154,5.4,5.8,93,0.12,,---,1.97,VWS V14.01,2013-04-28 21:07:00,
2013-04-28 16:08:00,58.5,56.5,27.02,SSW,207,5.8,5.8,93,0.12,,---,1.97,VWS V14.01,2013-04-28 21:08:00,
2013-04-28 16:09:00,58.5,56.5,27.02,SSW,207,5.8,5.8,93,0.12,,---,1.97,VWS V14.01,2013-04-28 21:09:00,
2013-04-28 16:10:00,58.6,56.6,27.02,SSW,207,5.8,5.8,93,0.12,,---,1.97,VWS V14.01,2013-04-28 21:10:00,
2013-04-28 16:12:00,58.6,56.6,27.02,SSW,207,5.8,5.8,93,0.12,,---,1.97,VWS V14.01,2013-04-28 21:12:00,
2013-04-28 16:13:00,58.6,56.6,27.11,SSW,207,5.8,5.8,93,0.12,,---,1.97,VWS V14.01,2013-04-28 21:13:00,
2013-04-28 16:14:00,58.6,56.6,27.11,South,172,5.4,5.8,93,0.08,,---,1.97,VWS V14.01,2013-04-28 21:14:00,
2013-04-28 16:15:00,58.6,56.6,27.11,SE,142,11.0,11.0,93,0.08,,---,1.97,VWS V14.01,2013-04-28 21:15:00,
2013-04-28 16:17:00,58.6,56.6,27.11,ESE,107,5.4,5.4,93,0.08,,---,1.97,VWS V14.01,2013-04-28 21:17:00,
2013-04-28 16:19:00,58.6,56.6,27.11,SSE,163,5.8,5.8,93,0.08,,---,1.97,VWS V14.01,2013-04-28 21:19:00,
2013-04-28 16:20:00,58.6,56.6,27.11,South,172,6.3,6.3,93,0.08,,---,1.97,VWS V14.01,2013-04-28 21:20:00,
2013-04-28 16:22:00,58.6,56.6,27.11,SSE,153,7.6,7.6,93,0.08,,---,1.97,VWS V14.01,2013-04-28 21:22:00,
2013-04-28 16:24:00,58.6,56.6,27.11,SSE,153,7.6,7.6,93,0.08,,---,1.97,VWS V14.01,2013-04-28 21:24:00,
2013-04-28 16:25:00,58.6,56.3,27.11,WSW,254,7.2,7.2,92,0.08,,---,1.97,VWS V14.01,2013-04-28 21:25:00,
2013-04-28 16:27:00,58.6,56.3,27.14,WSW,254,7.2,7.2,92,0.12,,---,2.01,VWS V14.01,2013-04-28 21:27:00,
2013-04-28 16:29:00,58.6,56.3,27.14,South,178,5.8,5.8,92,0.12,,---,2.01,VWS V14.01,2013-04-28 21:29:00,
2013-04-28 16:30:00,58.6,56.3,27.14,SE,137,5.8,8.7,92,0.12,,---,2.01,VWS V14.01,2013-04-28 21:30:00,
2013-04-28 16:32:00,58.6,56.3,27.14,South,173,15.0,15.0,92,0.12,,---,2.01,VWS V14.01,2013-04-28 21:32:00,
2013-04-28 16:33:00,58.6,56.3,27.14,South,180,8.3,8.3,92,0.12,,---,2.01,VWS V14.01,2013-04-28 21:33:00,
2013-04-28 16:34:00,58.6,56.3,27.14,SE,137,6.3,6.3,92,0.12,,---,2.01,VWS V14.01,2013-04-28 21:34:00,
2013-04-28 16:35:00,58.6,56.3,27.14,ESE,122,7.2,7.2,92,0.08,,---,2.01,VWS V14.01,2013-04-28 21:35:00,
2013-04-28 16:38:00,58.5,56.2,27.14,South,180,15.0,15.0,92,0.08,,---,2.01,VWS V14.01,2013-04-28 21:38:00,
2013-04-28 16:39:00,58.5,56.2,27.14,South,180,15.0,15.0,92,0.08,,---,2.01,VWS V14.01,2013-04-28 21:39:00,
2013-04-28 16:40:00,58.5,56.2,27.14,South,180,15.0,15.0,92,0.08,,---,2.01,VWS V14.01,2013-04-28 21:40:00,
2013-04-28 16:43:00,58.5,56.2,27.11,SSW,197,7.6,15.0,92,0.08,,---,2.01,VWS V14.01,2013-04-28 21:43:00,
2013-04-28 16:44:00,58.5,56.2,27.11,SSE,167,6.3,6.3,92,0.08,,---,2.01,VWS V14.01,2013-04-28 21:44:00,
2013-04-28 16:45:00,58.5,56.2,27.11,SSE,167,6.3,6.3,92,0.08,,---,2.01,VWS V14.01,2013-04-28 21:45:00,
2013-04-28 16:46:00,58.5,56.2,27.11,SSE,153,8.1,8.1,92,0.08,,---,2.01,VWS V14.01,2013-04-28 21:46:00,
2013-04-28 16:48:00,58.5,56.2,27.11,SW,226,5.8,7.6,92,0.08,,---,2.01,VWS V14.01,2013-04-28 21:48:00,
2013-04-28 16:50:00,58.5,56.2,27.11,SW,220,6.3,6.3,92,0.08,,---,2.01,VWS V14.01,2013-04-28 21:50:00,
2013-04-28 16:51:00,58.5,56.2,27.11,SW,220,6.3,6.3,92,0.08,,---,2.01,VWS V14.01,2013-04-28 21:51:00,
2013-04-28 16:53:00,58.5,56.2,27.11,West,261,5.4,5.4,92,0.08,,---,2.01,VWS V14.01,2013-04-28 21:53:00,
2013-04-28 16:55:00,58.5,55.8,27.11,South,186,3.1,5.4,91,0.08,,---,2.01,VWS V14.01,2013-04-28 21:55:00,
2013-04-28 16:56:00,58.5,55.8,27.11,SSW,192,3.1,3.1,91,0.08,,---,2.01,VWS V14.01,2013-04-28 21:56:00,
2013-04-28 16:58:00,58.5,55.8,27.11,SE,131,0.0,2.7,91,0.08,,---,2.01,VWS V14.01,2013-04-28 21:58:00,
2013-04-28 17:00:00,58.5,55.8,27.05,SE,141,0.0,0.0,91,0.08,,---,2.01,VWS V14.01,2013-04-28 22:00:00,
2013-04-28 17:01:00,58.5,55.8,27.05,WNW,287,0.0,0.0,91,0.04,,---,2.01,VWS V14.01,2013-04-28 22:01:00,
2013-04-28 17:03:00,58.5,55.8,27.05,WNW,287,0.0,0.0,91,0.04,,---,2.01,VWS V14.01,2013-04-28 22:03:00,
2013-04-28 17:04:00,58.5,55.8,27.05,WNW,287,0.0,0.0,91,0.04,,---,2.01,VWS V14.01,2013-04-28 22:04:00,
2013-04-28 17:05:00,58.5,55.8,27.05,WNW,287,0.0,0.0,91,0.04,,---,2.01,VWS V14.01,2013-04-28 22:05:00,
2013-04-28 17:06:00,58.5,55.8,27.05,SSW,204,4.9,4.9,91,0.04,,---,2.01,VWS V14.01,2013-04-28 22:06:00,
2013-04-28 17:08:00,58.5,55.8,27.05,SSW,193,4.0,4.0,91,0.04,,---,2.01,VWS V14.01,2013-04-28 22:08:00,
2013-04-28 17:09:00,58.5,55.8,27.05,SSW,197,2.2,4.0,91,0.04,,---,2.01,VWS V14.01,2013-04-28 22:09:00,
2013-04-28 17:10:00,58.5,55.8,27.05,SSW,201,0.0,0.0,91,0.04,,---,2.01,VWS V14.01,2013-04-28 22:10:00,
2013-04-28 17:11:00,58.5,55.8,27.05,SE,140,4.0,4.0,91,0.04,,---,2.01,VWS V14.01,2013-04-28 22:11:00,
2013-04-28 17:13:00,58.5,55.8,27.05,SW,216,6.7,6.7,91,0.04,,---,2.01,VWS V14.01,2013-04-28 22:13:00,
2013-04-28 17:14:00,58.5,55.8,27.05,SSE,151,3.1,6.7,91,0.04,,---,2.01,VWS V14.01,2013-04-28 22:14:00,
2013-04-28 17:15:00,58.6,55.7,27.05,SSE,151,3.1,3.1,90,0.04,,---,2.01,VWS V14.01,2013-04-28 22:15:00,
2013-04-28 17:17:00,58.6,55.7,27.05,South,175,2.7,2.7,90,0.04,,---,2.01,VWS V14.01,2013-04-28 22:17:00,
2013-04-28 17:18:00,58.6,55.7,27.05,South,177,3.1,3.1,90,0.04,,---,2.01,VWS V14.01,2013-04-28 22:18:00,
2013-04-28 17:19:00,58.6,55.7,27.05,South,177,3.1,3.1,90,0.04,,---,2.01,VWS V14.01,2013-04-28 22:19:00,
2013-04-28 17:20:00,58.6,55.7,27.05,SSE,164,3.1,3.1,90,0.04,,---,2.01,VWS V14.01,2013-04-28 22:20:00,
2013-04-28 17:21:00,58.6,55.7,27.05,SSE,164,3.1,3.1,90,0.04,,---,2.01,VWS V14.01,2013-04-28 22:21:00,
2013-04-28 17:22:00,58.6,55.7,27.05,ESE,109,0.0,0.0,90,0.04,,---,2.01,VWS V14.01,2013-04-28 22:22:00,
2013-04-28 17:24:00,58.6,55.7,27.05,South,180,8.1,8.1,90,0.04,,---,2.01,VWS V14.01,2013-04-28 22:24:00,
2013-04-28 17:26:00,58.6,55.7,27.08,South,179,3.1,3.1,90,0.04,,---,2.01,VWS V14.01,2013-04-28 22:26:00,
2013-04-28 17:27:00,58.6,55.7,27.08,SSE,163,5.8,5.8,90,0.00,,---,2.01,VWS V14.01,2013-04-28 22:27:00,
2013-04-28 17:29:00,58.6,55.7,27.08,SSW,196,3.1,7.6,90,0.00,,---,2.01,VWS V14.01,2013-04-28 22:29:00,
2013-04-28 17:31:00,58.6,55.7,27.08,South,181,0.0,3.1,90,0.00,,---,2.01,VWS V14.01,2013-04-28 22:31:00,
2013-04-28 17:32:00,58.6,55.7,27.08,South,176,3.1,3.1,90,0.00,,---,2.01,VWS V14.01,2013-04-28 22:32:00,
2013-04-28 17:34:00,58.5,55.5,27.08,SSE,162,3.6,3.6,90,0.00,,---,2.01,VWS V14.01,2013-04-28 22:34:00,
2013-04-28 17:36:00,58.5,55.5,27.08,SW,227,4.0,4.0,90,0.00,,---,2.01,VWS V14.01,2013-04-28 22:36:00,
2013-04-28 17:37:00,58.5,55.5,27.08,SW,227,4.0,4.0,90,0.00,,---,2.01,VWS V14.01,2013-04-28 22:37:00,
2013-04-28 17:39:00,58.5,55.5,27.08,SW,227,0.0,0.0,90,0.00,,---,2.01,VWS V14.01,2013-04-28 22:39:00,
2013-04-28 17:40:00,58.5,55.5,27.08,SSE,158,0.0,0.0,90,0.00,,---,2.01,VWS V14.01,2013-04-28 22:40:00,
2013-04-28 17:41:00,58.5,55.5,26.99,SSE,158,0.0,0.0,90,0.00,,---,2.01,VWS V14.01,2013-04-28 22:41:00,
2013-04-28 17:42:00,58.5,55.5,26.99,SSE,158,0.0,0.0,90,0.00,,---,2.01,VWS V14.01,2013-04-28 22:42:00,
2013-04-28 17:45:00,58.5,55.5,26.99,South,179,0.0,0.0,90,0.00,,---,2.01,VWS V14.01,2013-04-28 22:45:00,
2013-04-28 17:46:00,58.5,55.5,26.99,South,174,2.7,2.7,90,0.00,,---,2.01,VWS V14.01,2013-04-28 22:46:00,
2013-04-28 17:48:00,58.5,55.5,26.99,SSW,193,0.0,2.7,90,0.00,,---,2.01,VWS V14.01,2013-04-28 22:48:00,
2013-04-28 17:50:00,58.5,55.5,26.99,SSW,193,0.0,0.0,90,0.00,,---,2.01,VWS V14.01,2013-04-28 22:50:00,
2013-04-28 17:51:00,58.5,55.5,26.99,SSE,151,0.0,0.0,90,0.00,,---,2.01,VWS V14.01,2013-04-28 22:51:00,
2013-04-28 17:53:00,58.5,55.5,27.08,SSE,147,3.1,3.1,90,0.00,,---,2.01,VWS V14.01,2013-04-28 22:53:00,
2013-04-28 17:55:00,58.5,55.5,27.08,SSE,167,4.0,4.0,90,0.00,,---,2.01,VWS V14.01,2013-04-28 22:55:00,
2013-04-28 17:56:00,58.5,55.5,27.08,SE,129,2.7,2.7,90,0.00,,---,2.01,VWS V14.01,2013-04-28 22:56:00,
2013-04-28 17:58:00,58.3,55.4,27.08,SE,129,2.7,2.7,90,0.00,,---,2.01,VWS V14.01,2013-04-28 22:58:00,
2013-04-28 18:00:00,58.3,55.4,27.08,SSE,166,0.0,0.0,90,0.00,,---,2.01,VWS V14.01,2013-04-28 23:00:00,
2013-04-28 18:01:00,58.3,55.4,27.08,SSE,166,0.0,0.0,90,0.00,,---,2.01,VWS V14.01,2013-04-28 23:01:00,
2013-04-28 18:03:00,58.3,55.4,27.08,SE,139,4.5,4.5,90,0.00,,---,2.01,VWS V14.01,2013-04-28 23:03:00,
2013-04-28 18:05:00,58.3,55.4,27.08,SSE,153,3.6,4.9,90,0.00,,---,2.01,VWS V14.01,2013-04-28 23:05:00,
2013-04-28 18:06:00,58.3,55.4,27.08,SSE,160,2.7,4.9,90,0.00,,---,2.01,VWS V14.01,2013-04-28 23:06:00,
2013-04-28 18:08:00,58.1,54.9,27.08,SSE,155,3.1,3.1,89,0.00,,---,2.01,VWS V14.01,2013-04-28 23:08:00,
2013-04-28 18:10:00,58.1,54.9,27.14,SSE,168,4.9,4.9,89,0.00,,---,2.01,VWS V14.01,2013-04-28 23:10:00,
2013-04-28 18:11:00,58.1,54.9,27.14,SSE,168,4.9,4.9,89,0.00,,---,2.01,VWS V14.01,2013-04-28 23:11:00,
2013-04-28 18:12:00,58.1,54.9,27.14,SSE,162,5.8,5.8,89,0.00,,---,2.01,VWS V14.01,2013-04-28 23:12:00,
2013-04-28 18:13:00,58.1,54.9,27.14,SE,124,3.1,5.4,89,0.00,,---,2.01,VWS V14.01,2013-04-28 23:13:00,
2013-04-28 18:15:00,58.1,54.9,27.14,South,184,3.1,3.1,89,0.00,,---,2.01,VWS V14.01,2013-04-28 23:15:00,
2013-04-28 18:16:00,58.1,54.9,27.14,South,184,3.1,3.1,89,0.00,,---,2.01,VWS V14.01,2013-04-28 23:16:00,
2013-04-28 18:17:00,58.1,54.9,27.14,South,188,3.1,3.1,89,0.00,,---,2.01,VWS V14.01,2013-04-28 23:17:00,
2013-04-28 18:18:00,58.1,54.9,27.14,South,188,3.1,3.1,89,0.00,,---,2.01,VWS V14.01,2013-04-28 23:18:00,
2013-04-28 18:21:00,58.1,55.2,27.14,SSW,192,3.1,3.1,90,0.00,,---,2.01,VWS V14.01,2013-04-28 23:21:00,
2013-04-28 18:22:00,58.1,55.2,27.14,SSE,164,2.7,3.1,90,0.00,,---,2.01,VWS V14.01,2013-04-28 23:22:00,
2013-04-28 18:23:00,58.1,55.2,27.14,SSE,165,4.0,4.0,90,0.00,,---,2.01,VWS V14.01,2013-04-28 23:23:00,
2013-04-28 18:26:00,58.1,55.2,27.14,SSE,165,4.0,4.0,90,0.00,,---,2.01,VWS V14.01,2013-04-28 23:26:00,
2013-04-28 18:27:00,58.1,55.2,27.14,SSE,165,4.0,4.0,90,0.00,,---,2.01,VWS V14.01,2013-04-28 23:27:00,
2013-04-28 18:28:00,58.1,55.2,27.14,South,172,3.6,3.6,90,0.00,,---,2.01,VWS V14.01,2013-04-28 23:28:00,
2013-04-28 18:31:00,58.1,55.2,27.14,SSE,165,3.1,3.1,90,0.00,,---,2.01,VWS V14.01,2013-04-28 23:31:00,
2013-04-28 18:32:00,58.1,55.2,27.14,SSE,165,3.1,3.1,90,0.00,,---,2.01,VWS V14.01,2013-04-28 23:32:00,
2013-04-28 18:33:00,58.1,55.2,27.14,SSE,166,3.1,3.1,90,0.00,,---,2.01,VWS V14.01,2013-04-28 23:33:00,
2013-04-28 18:36:00,58.1,55.2,27.14,SSE,165,3.1,3.1,90,0.00,,---,2.01,VWS V14.01,2013-04-28 23:36:00,
2013-04-28 18:37:00,58.1,55.2,27.14,SSE,165,3.1,3.1,90,0.00,,---,2.01,VWS V14.01,2013-04-28 23:37:00,
2013-04-28 18:39:00,58.1,55.2,27.14,South,170,2.7,2.7,90,0.00,,---,2.01,VWS V14.01,2013-04-28 23:39:00,
2013-04-28 18:41:00,58.1,55.2,27.14,SE,142,2.2,4.0,90,0.00,,---,2.01,VWS V14.01,2013-04-28 23:41:00,
2013-04-28 18:42:00,58.1,55.2,27.14,SE,142,2.2,4.0,90,0.00,,---,2.01,VWS V14.01,2013-04-28 23:42:00,
2013-04-28 18:43:00,58.1,55.2,27.14,SE,144,2.7,2.7,90,0.00,,---,2.01,VWS V14.01,2013-04-28 23:43:00,
2013-04-28 18:44:00,58.1,55.2,27.14,SSE,148,0.0,2.7,90,0.00,,---,2.01,VWS V14.01,2013-04-28 23:44:00,
2013-04-28 18:46:00,58.1,55.2,27.14,South,169,2.7,5.8,90,0.00,,---,2.01,VWS V14.01,2013-04-28 23:46:00,
2013-04-28 18:47:00,58.1,55.2,27.14,SSE,167,2.7,5.8,90,0.00,,---,2.01,VWS V14.01,2013-04-28 23:47:00,
2013-04-28 18:48:00,58.1,55.2,27.14,SSE,167,2.7,2.7,90,0.00,,---,2.01,VWS V14.01,2013-04-28 23:48:00,
2013-04-28 18:49:00,58.1,55.2,27.14,SSE,167,2.7,2.7,90,0.00,,---,2.01,VWS V14.01,2013-04-28 23:49:00,
2013-04-28 18:51:00,58.1,55.2,27.14,SSE,167,2.7,2.7,90,0.00,,---,2.01,VWS V14.01,2013-04-28 23:51:00,
2013-04-28 18:52:00,58.1,55.2,27.14,SSE,167,2.7,2.7,90,0.00,,---,2.01,VWS V14.01,2013-04-28 23:52:00,
2013-04-28 18:53:00,58.1,55.2,27.14,SSE,149,2.7,2.7,90,0.00,,---,2.01,VWS V14.01,2013-04-28 23:53:00,
2013-04-28 18:54:00,58.1,55.2,27.14,SSE,165,3.6,3.6,90,0.00,,---,2.01,VWS V14.01,2013-04-28 23:54:00,
2013-04-28 18:56:00,58.1,55.2,27.11,SSE,158,3.6,3.6,90,0.00,,---,2.01,VWS V14.01,2013-04-28 23:56:00,
2013-04-28 18:57:00,58.1,55.2,27.11,SSE,158,3.6,3.6,90,0.00,,---,2.01,VWS V14.01,2013-04-28 23:57:00,
2013-04-28 18:58:00,58.1,55.2,27.11,SE,132,2.7,3.6,90,0.00,,---,2.01,VWS V14.01,2013-04-28 23:58:00,
2013-04-28 18:59:00,58.1,55.2,27.11,South,184,6.3,6.3,90,0.00,,---,2.01,VWS V14.01,2013-04-28 23:59:00,
2013-04-28 19:02:00,58.1,55.2,27.11,SE,138,3.6,3.6,90,0.00,,---,2.01,VWS V14.01,2013-04-29 00:02:00,
2013-04-28 19:03:00,58.1,55.2,27.11,South,172,3.1,3.6,90,0.00,,---,2.01,VWS V14.01,2013-04-29 00:03:00,
2013-04-28 19:04:00,58.1,55.2,27.11,South,171,3.1,3.1,90,0.00,,---,2.01,VWS V14.01,2013-04-29 00:04:00,
2013-04-28 19:07:00,58.1,55.2,27.11,South,183,3.1,3.1,90,0.00,,---,2.01,VWS V14.01,2013-04-29 00:07:00,
2013-04-28 19:08:00,58.1,55.2,27.11,SE,141,0.0,3.1,90,0.00,,---,2.01,VWS V14.01,2013-04-29 00:08:00,
2013-04-28 19:09:00,57.9,55.0,27.11,SE,141,0.0,0.0,90,0.00,,---,2.01,VWS V14.01,2013-04-29 00:09:00,
2013-04-28 19:12:00,57.9,55.0,27.11,South,187,0.0,0.0,90,0.00,,---,2.01,VWS V14.01,2013-04-29 00:12:00,
2013-04-28 19:13:00,57.9,55.0,27.11,South,183,2.7,2.7,90,0.00,,---,2.01,VWS V14.01,2013-04-29 00:13:00,
2013-04-28 19:15:00,57.9,55.0,27.11,South,169,4.9,4.9,90,0.00,,---,2.01,VWS V14.01,2013-04-29 00:15:00,
2013-04-28 19:17:00,57.9,55.0,27.11,SE,127,2.7,2.7,90,0.00,,---,2.01,VWS V14.01,2013-04-29 00:17:00,
2013-04-28 19:18:00,57.9,55.0,27.11,SE,127,2.7,2.7,90,0.00,,---,2.01,VWS V14.01,2013-04-29 00:18:00,
2013-04-28 19:20:00,57.9,55.0,27.11,SSE,151,4.0,4.0,90,0.00,,---,2.01,VWS V14.01,2013-04-29 00:20:00,
2013-04-28 19:22:00,57.9,55.0,27.11,SW,236,2.2,4.0,90,0.00,,---,2.01,VWS V14.01,2013-04-29 00:22:00,
2013-04-28 19:23:00,57.9,55.0,27.11,SW,236,2.2,2.2,90,0.00,,---,2.01,VWS V14.01,2013-04-29 00:23:00,
2013-04-28 19:24:00,57.9,55.0,27.11,SW,236,2.2,2.2,90,0.00,,---,2.01,VWS V14.01,2013-04-29 00:24:00,
2013-04-28 19:25:00,57.9,55.0,0.66,SSW,209,0.0,2.2,90,0.00,,---,2.01,VWS V14.01,2013-04-29 00:25:00,
2013-04-28 19:28:00,57.9,55.3,0.66,SSW,209,0.0,0.0,91,0.00,,---,2.01,VWS V14.01,2013-04-29 00:28:00,
2013-04-28 19:29:00,57.9,55.3,0.66,SSW,202,0.0,0.0,91,0.00,,---,2.01,VWS V14.01,2013-04-29 00:29:00,
2013-04-28 19:30:00,57.9,55.3,0.66,SSE,163,4.0,4.0,91,0.00,,---,2.01,VWS V14.01,2013-04-29 00:30:00,
2013-04-28 19:33:00,57.9,55.3,0.66,SSE,168,4.9,4.9,91,0.00,,---,2.01,VWS V14.01,2013-04-29 00:33:00,
2013-04-28 19:34:00,57.9,55.3,0.66,SSE,168,4.9,4.9,91,0.00,,---,2.01,VWS V14.01,2013-04-29 00:34:00,
2013-04-28 19:35:00,57.9,55.3,0.66,SSE,161,0.0,4.9,91,0.00,,---,2.01,VWS V14.01,2013-04-29 00:35:00,
2013-04-28 19:38:00,57.9,55.3,0.66,SSE,148,3.1,3.1,91,0.00,,---,2.01,VWS V14.01,2013-04-29 00:38:00,
2013-04-28 19:39:00,57.9,55.3,0.66,SSW,193,3.1,3.1,91,0.00,,---,2.01,VWS V14.01,2013-04-29 00:39:00,
2013-04-28 19:40:00,57.9,55.3,0.66,WSW,244,0.0,3.1,91,0.00,,---,2.01,VWS V14.01,2013-04-29 00:40:00,
2013-04-28 19:43:00,57.9,55.3,27.11,SSW,211,0.0,0.0,91,0.00,,---,2.01,VWS V14.01,2013-04-29 00:43:00,
2013-04-28 19:44:00,57.9,55.3,27.11,SW,214,0.0,0.0,91,0.00,,---,2.01,VWS V14.01,2013-04-29 00:44:00,
2013-04-28 19:45:00,57.9,55.3,27.11,SE,142,2.7,2.7,91,0.00,,---,2.01,VWS V14.01,2013-04-29 00:45:00,
2013-04-28 19:48:00,57.9,55.3,27.11,SSE,162,0.0,0.0,91,0.00,,---,2.01,VWS V14.01,2013-04-29 00:48:00,
2013-04-28 19:50:00,57.9,55.3,27.11,SSE,154,0.0,0.0,91,0.00,,---,2.01,VWS V14.01,2013-04-29 00:50:00,
2013-04-28 19:53:00,57.9,55.3,0.66,SSE,147,2.2,2.2,91,0.00,,---,2.01,VWS V14.01,2013-04-29 00:53:00,
2013-04-28 19:54:00,57.6,55.0,0.66,SE,142,2.7,2.7,91,0.00,,---,2.01,VWS V14.01,2013-04-29 00:54:00,
2013-04-28 19:55:00,57.6,55.0,0.66,SE,142,2.7,2.7,91,0.00,,---,2.01,VWS V14.01,2013-04-29 00:55:00,
2013-04-28 19:56:00,57.6,55.0,0.66,SSE,167,3.6,3.6,91,0.00,,---,2.01,VWS V14.01,2013-04-29 00:56:00,
2013-04-28 19:58:00,57.6,55.0,0.66,SSW,192,3.1,3.1,91,0.00,,---,2.01,VWS V14.01,2013-04-29 00:58:00,
2013-04-28 19:59:00,57.6,55.0,0.66,South,176,2.2,2.2,91,0.00,,---,2.01,VWS V14.01,2013-04-29 00:59:00,
2013-04-28 20:00:00,57.6,55.0,0.66,South,176,2.2,2.2,91,0.00,,---,0.00,VWS V14.01,2013-04-29 01:00:00,
2013-04-28 20:01:00,57.6,55.0,27.11,SE,139,0.0,2.2,91,0.00,,---,2.01,VWS V14.01,2013-04-29 01:01:00,
2013-04-28 20:03:00,57.6,55.0,27.11,South,176,2.7,2.7,91,0.00,,---,2.01,VWS V14.01,2013-04-29 01:03:00,
2013-04-28 20:04:00,57.6,55.0,27.11,South,171,3.1,3.1,91,0.00,,---,2.01,VWS V14.01,2013-04-29 01:04:00,
2013-04-28 20:05:00,57.6,55.0,27.11,South,171,3.1,3.1,91,0.00,,---,2.01,VWS V14.01,2013-04-29 01:05:00,
2013-04-28 20:06:00,57.6,55.0,27.11,South,171,3.1,3.1,91,0.00,,---,2.01,VWS V14.01,2013-04-29 01:06:00,
2013-04-28 20:09:00,57.6,55.0,27.11,South,169,0.0,0.0,91,0.00,,---,2.01,VWS V14.01,2013-04-29 01:09:00,
2013-04-28 20:10:00,57.6,55.0,27.11,SSE,154,3.1,3.1,91,0.00,,---,2.01,VWS V14.01,2013-04-29 01:10:00,
2013-04-28 20:11:00,57.6,55.0,27.11,South,180,4.0,4.0,91,0.00,,---,2.01,VWS V14.01,2013-04-29 01:11:00,
2013-04-28 20:14:00,57.6,55.0,27.11,South,180,4.0,4.0,91,0.00,,---,2.01,VWS V14.01,2013-04-29 01:14:00,
2013-04-28 20:15:00,57.6,55.0,27.11,SSE,148,0.0,4.0,91,0.00,,---,2.01,VWS V14.01,2013-04-29 01:15:00,
2013-04-28 20:16:00,57.6,55.0,27.11,SSE,148,0.0,0.0,91,0.00,,---,2.01,VWS V14.01,2013-04-29 01:16:00,
2013-04-28 20:18:00,57.6,55.0,27.11,SE,139,4.9,4.9,91,0.00,,---,2.01,VWS V14.01,2013-04-29 01:18:00,
2013-04-28 20:19:00,57.6,55.0,27.11,SE,139,4.9,4.9,91,0.00,,---,2.01,VWS V14.01,2013-04-29 01:19:00,
2013-04-28 20:20:00,57.6,55.0,27.11,SE,139,4.9,4.9,91,0.00,,---,2.01,VWS V14.01,2013-04-29 01:20:00,
2013-04-28 20:21:00,57.6,55.0,27.11,SE,139,4.9,4.9,91,0.00,,---,2.01,VWS V14.01,2013-04-29 01:21:00,
2013-04-28 20:24:00,57.6,55.0,27.11,South,176,4.0,4.9,91,0.00,,---,2.01,VWS V14.01,2013-04-29 01:24:00,
2013-04-28 20:25:00,57.6,55.0,27.11,SSW,202,5.4,5.4,91,0.00,,---,2.01,VWS V14.01,2013-04-29 01:25:00,
2013-04-28 20:26:00,57.6,55.0,27.11,SSW,202,5.4,5.4,91,0.00,,---,2.01,VWS V14.01,2013-04-29 01:26:00,
2013-04-28 20:28:00,57.6,55.0,27.11,SSE,162,2.7,2.7,91,0.00,,---,2.01,VWS V14.01,2013-04-29 01:28:00,
2013-04-28 20:29:00,57.6,55.0,27.11,SSE,162,2.7,2.7,91,0.00,,---,2.01,VWS V14.01,2013-04-29 01:29:00,
2013-04-28 20:30:00,57.6,55.0,27.11,South,169,3.6,3.6,91,0.00,,---,2.01,VWS V14.01,2013-04-29 01:30:00,
2013-04-28 20:32:00,57.6,55.0,27.11,South,169,3.6,3.6,91,0.00,,---,2.01,VWS V14.01,2013-04-29 01:32:00,
2013-04-28 20:34:00,57.6,55.0,27.05,SSE,154,2.7,2.7,91,0.00,,---,2.01,VWS V14.01,2013-04-29 01:34:00,
2013-04-28 20:35:00,57.6,55.0,27.05,SSE,151,3.1,3.1,91,0.00,,---,2.01,VWS V14.01,2013-04-29 01:35:00,
2013-04-28 20:37:00,57.6,55.0,27.05,SE,139,2.7,3.1,91,0.00,,---,2.01,VWS V14.01,2013-04-29 01:37:00,
2013-04-28 20:39:00,57.6,55.0,27.05,SSE,159,2.7,2.7,91,0.00,,---,2.01,VWS V14.01,2013-04-29 01:39:00,
2013-04-28 20:40:00,57.6,55.0,27.05,SE,144,4.0,4.0,91,0.00,,---,2.01,VWS V14.01,2013-04-29 01:40:00,
2013-04-28 20:41:00,57.4,54.8,27.05,SE,144,4.0,4.0,91,0.00,,---,2.01,VWS V14.01,2013-04-29 01:41:00,
2013-04-28 20:42:00,57.4,54.8,27.05,SE,144,4.0,4.0,91,0.00,,---,2.01,VWS V14.01,2013-04-29 01:42:00,
2013-04-28 20:44:00,57.4,54.8,27.05,South,174,2.7,2.7,91,0.00,,---,2.01,VWS V14.01,2013-04-29 01:44:00,
2013-04-28 20:45:00,57.4,54.8,27.05,South,174,2.7,2.7,91,0.00,,---,2.01,VWS V14.01,2013-04-29 01:45:00,
2013-04-28 20:46:00,57.4,54.8,27.05,South,169,4.0,4.0,91,0.00,,---,2.01,VWS V14.01,2013-04-29 01:46:00,
2013-04-28 20:47:00,57.4,54.8,27.11,South,169,4.0,4.0,91,0.00,,---,2.01,VWS V14.01,2013-04-29 01:47:00,
2013-04-28 20:49:00,57.4,54.8,27.11,South,190,4.0,4.0,91,0.00,,---,2.01,VWS V14.01,2013-04-29 01:49:00,
2013-04-28 20:50:00,57.4,54.8,27.11,South,172,3.1,3.1,91,0.00,,---,2.01,VWS V14.01,2013-04-29 01:50:00,
2013-04-28 20:51:00,57.4,54.8,27.11,South,172,3.1,3.1,91,0.00,,---,2.01,VWS V14.01,2013-04-29 01:51:00,
2013-04-28 20:52:00,57.4,54.8,27.11,South,172,3.1,3.1,91,0.00,,---,2.01,VWS V14.01,2013-04-29 01:52:00,
2013-04-28 20:54:00,57.4,54.8,27.11,South,176,2.7,3.6,91,0.00,,---,2.01,VWS V14.01,2013-04-29 01:54:00,
2013-04-28 20:55:00,57.4,54.8,27.11,South,176,2.7,2.7,91,0.00,,---,2.01,VWS V14.01,2013-04-29 01:55:00,
2013-04-28 20:56:00,57.4,54.8,27.11,South,180,3.1,3.1,91,0.00,,---,2.01,VWS V14.01,2013-04-29 01:56:00,
2013-04-28 20:57:00,57.4,54.8,27.11,South,183,2.2,2.2,91,0.00,,---,2.01,VWS V14.01,2013-04-29 01:57:00,
2013-04-28 20:59:00,57.4,55.1,27.11,South,183,2.2,2.2,92,0.00,,---,2.01,VWS V14.01,2013-04-29 01:59:00,
2013-04-28 21:00:00,57.4,55.1,27.11,South,170,3.6,3.6,92,0.00,,---,2.01,VWS V14.01,2013-04-29 02:00:00,
2013-04-28 21:01:00,57.4,55.1,27.11,SSE,152,4.0,6.3,92,0.00,,---,2.01,VWS V14.01,2013-04-29 02:01:00,
2013-04-28 21:02:00,57.4,55.1,27.11,South,176,5.4,5.4,92,0.00,,---,2.01,VWS V14.01,2013-04-29 02:02:00,
2013-04-28 21:04:00,57.4,55.1,27.11,SSE,155,4.0,4.0,92,0.00,,---,2.01,VWS V14.01,2013-04-29 02:04:00,
2013-04-28 21:05:00,57.4,55.1,27.11,South,181,5.4,5.4,92,0.00,,---,2.01,VWS V14.01,2013-04-29 02:05:00,
2013-04-28 21:06:00,57.4,55.1,27.11,SE,138,3.1,5.4,92,0.00,,---,2.01,VWS V14.01,2013-04-29 02:06:00,
2013-04-28 21:07:00,57.4,55.1,27.11,SSE,167,3.6,4.0,92,0.00,,---,2.01,VWS V14.01,2013-04-29 02:07:00,
2013-04-28 21:09:00,57.4,55.1,27.11,South,180,3.6,3.6,92,0.00,,---,2.01,VWS V14.01,2013-04-29 02:09:00,
2013-04-28 21:10:00,57.4,55.1,27.11,SSE,166,2.7,3.6,92,0.00,,---,2.01,VWS V14.01,2013-04-29 02:10:00,
2013-04-28 21:11:00,57.4,55.1,27.11,South,169,4.0,4.0,92,0.00,,---,2.01,VWS V14.01,2013-04-29 02:11:00,
2013-04-28 21:12:00,57.4,55.1,27.11,SSE,166,4.0,4.0,92,0.00,,---,2.01,VWS V14.01,2013-04-29 02:12:00,
2013-04-28 21:14:00,57.4,55.1,27.11,SSE,166,0.0,0.0,92,0.00,,---,2.01,VWS V14.01,2013-04-29 02:14:00,
2013-04-28 21:15:00,57.4,55.1,27.11,South,182,3.6,3.6,92,0.00,,---,2.01,VWS V14.01,2013-04-29 02:15:00,
2013-04-28 21:16:00,57.4,55.1,27.11,South,169,4.0,4.0,92,0.00,,---,2.01,VWS V14.01,2013-04-29 02:16:00,
2013-04-28 21:18:00,57.4,55.1,27.11,South,169,2.2,2.2,92,0.00,,---,2.01,VWS V14.01,2013-04-29 02:18:00,
2013-04-28 21:20:00,57.4,55.1,27.08,SSE,150,3.1,3.1,92,0.00,,---,2.01,VWS V14.01,2013-04-29 02:20:00,
2013-04-28 21:21:00,57.4,55.1,27.08,SW,224,5.4,5.4,92,0.00,,---,2.01,VWS V14.01,2013-04-29 02:21:00,
2013-04-28 21:23:00,57.4,55.1,27.08,WSW,254,2.7,2.7,92,0.00,,---,2.01,VWS V14.01,2013-04-29 02:23:00,
2013-04-28 21:25:00,57.2,54.9,27.08,South,179,2.7,3.6,92,0.00,,---,2.01,VWS V14.01,2013-04-29 02:25:00,
2013-04-28 21:26:00,57.2,54.9,27.05,South,179,0.0,0.0,92,0.00,,---,2.01,VWS V14.01,2013-04-29 02:26:00,
2013-04-28 21:28:00,57.2,54.9,27.05,SSE,150,0.0,0.0,92,0.00,,---,2.01,VWS V14.01,2013-04-29 02:28:00,
2013-04-28 21:30:00,57.2,54.9,27.05,SSE,150,2.2,2.2,92,0.00,,---,2.01,VWS V14.01,2013-04-29 02:30:00,
2013-04-28 21:31:00,57.2,54.9,27.05,South,180,3.1,3.1,92,0.00,,---,2.01,VWS V14.01,2013-04-29 02:31:00,
2013-04-28 21:32:00,57.2,54.9,27.05,South,184,0.0,3.1,92,0.00,,---,2.01,VWS V14.01,2013-04-29 02:32:00,
2013-04-28 21:33:00,57.2,54.9,27.05,SE,144,2.7,2.7,92,0.00,,---,2.01,VWS V14.01,2013-04-29 02:33:00,
2013-04-28 21:35:00,57.2,54.9,27.05,SE,143,0.0,2.7,92,0.00,,---,2.01,VWS V14.01,2013-04-29 02:35:00,
2013-04-28 21:36:00,57.2,54.9,27.05,South,186,0.0,0.0,92,0.00,,---,2.01,VWS V14.01,2013-04-29 02:36:00,
2013-04-28 21:37:00,57.2,54.9,27.05,South,181,2.7,2.7,92,0.00,,---,2.01,VWS V14.01,2013-04-29 02:37:00,
2013-04-28 21:38:00,57.2,54.9,27.05,South,181,2.7,2.7,92,0.00,,---,2.01,VWS V14.01,2013-04-29 02:38:00,
2013-04-28 21:40:00,57.2,54.9,27.05,South,182,0.0,0.0,92,0.00,,---,2.01,VWS V14.01,2013-04-29 02:40:00,
2013-04-28 21:41:00,57.2,54.9,27.05,SSE,149,0.0,2.7,92,0.00,,---,2.01,VWS V14.01,2013-04-29 02:41:00,
2013-04-28 21:42:00,57.2,54.9,27.05,SSE,149,0.0,2.7,92,0.00,,---,2.01,VWS V14.01,2013-04-29 02:42:00,
2013-04-28 21:43:00,57.2,54.9,27.05,South,169,0.0,0.0,92,0.00,,---,2.01,VWS V14.01,2013-04-29 02:43:00,
2013-04-28 21:46:00,57.0,54.7,27.08,South,169,0.0,0.0,92,0.00,,---,2.01,VWS V14.01,2013-04-29 02:46:00,
2013-04-28 21:47:00,57.0,54.7,27.08,SSE,159,0.0,0.0,92,0.00,,---,2.01,VWS V14.01,2013-04-29 02:47:00,
2013-04-28 21:48:00,57.0,54.7,27.08,SSE,159,0.0,0.0,92,0.00,,---,2.01,VWS V14.01,2013-04-29 02:48:00,
2013-04-28 21:51:00,57.0,54.7,27.08,South,187,0.0,0.0,92,0.00,,---,2.01,VWS V14.01,2013-04-29 02:51:00,
2013-04-28 21:52:00,57.0,54.7,27.08,South,187,0.0,0.0,92,0.00,,---,2.01,VWS V14.01,2013-04-29 02:52:00,
2013-04-28 21:53:00,57.0,54.7,27.08,South,187,0.0,0.0,92,0.00,,---,2.01,VWS V14.01,2013-04-29 02:53:00,
2013-04-28 21:56:00,56.8,54.5,27.08,South,187,0.0,0.0,92,0.00,,---,2.01,VWS V14.01,2013-04-29 02:56:00,
2013-04-28 21:57:00,56.8,54.5,27.08,South,187,0.0,0.0,92,0.00,,---,2.01,VWS V14.01,2013-04-29 02:57:00,
2013-04-28 21:58:00,56.8,54.5,27.08,South,187,0.0,0.0,92,0.00,,---,2.01,VWS V14.01,2013-04-29 02:58:00,
2013-04-28 21:59:00,56.8,54.5,27.08,South,187,0.0,0.0,92,0.00,,---,2.01,VWS V14.01,2013-04-29 02:59:00,
2013-04-28 22:01:00,56.8,54.5,27.08,SSE,168,0.0,0.0,92,0.00,,---,2.01,VWS V14.01,2013-04-29 03:01:00,
2013-04-28 22:03:00,56.8,54.5,27.08,SSE,168,0.0,0.0,92,0.00,,---,2.01,VWS V14.01,2013-04-29 03:03:00,
2013-04-28 22:04:00,56.8,54.5,27.08,SSE,168,0.0,0.0,92,0.00,,---,2.01,VWS V14.01,2013-04-29 03:04:00,
2013-04-28 22:06:00,56.8,54.5,27.08,SSE,168,0.0,0.0,92,0.00,,---,2.01,VWS V14.01,2013-04-29 03:06:00,
2013-04-28 22:07:00,56.8,54.5,27.08,SSE,147,0.0,0.0,92,0.00,,---,2.01,VWS V14.01,2013-04-29 03:07:00,
2013-04-28 22:08:00,56.8,54.5,27.08,SSE,147,0.0,0.0,92,0.00,,---,2.01,VWS V14.01,2013-04-29 03:08:00,
2013-04-28 22:09:00,56.8,54.5,27.08,SSE,147,0.0,0.0,92,0.00,,---,2.01,VWS V14.01,2013-04-29 03:09:00,
2013-04-28 22:11:00,56.7,54.4,27.08,SSE,160,0.0,0.0,92,0.00,,---,2.01,VWS V14.01,2013-04-29 03:11:00,
2013-04-28 22:12:00,56.7,54.4,27.08,SSE,159,0.0,0.0,92,0.00,,---,2.01,VWS V14.01,2013-04-29 03:12:00,
2013-04-28 22:13:00,56.7,54.4,27.08,SSE,159,0.0,0.0,92,0.00,,---,2.01,VWS V14.01,2013-04-29 03:13:00,
2013-04-28 22:14:00,56.7,54.4,27.08,SSE,155,0.0,0.0,92,0.00,,---,2.01,VWS V14.01,2013-04-29 03:14:00,
2013-04-28 22:16:00,56.7,54.4,27.08,SSE,155,0.0,0.0,92,0.00,,---,2.01,VWS V14.01,2013-04-29 03:16:00,
2013-04-28 22:17:00,56.7,54.4,27.08,SSE,155,0.0,0.0,92,0.00,,---,2.01,VWS V14.01,2013-04-29 03:17:00,
2013-04-28 22:18:00,56.7,54.4,27.08,SSE,155,0.0,0.0,92,0.00,,---,2.01,VWS V14.01,2013-04-29 03:18:00,
2013-04-28 22:19:00,56.7,54.4,27.08,SSE,155,0.0,0.0,92,0.00,,---,2.01,VWS V14.01,2013-04-29 03:19:00,
2013-04-28 22:21:00,56.7,54.4,27.08,SSE,155,0.0,0.0,92,0.00,,---,2.01,VWS V14.01,2013-04-29 03:21:00,
2013-04-28 22:22:00,56.7,54.4,27.08,SSE,155,0.0,0.0,92,0.00,,---,2.01,VWS V14.01,2013-04-29 03:22:00,
2013-04-28 22:24:00,56.7,54.4,27.08,SE,142,0.0,0.0,92,0.00,,---,2.01,VWS V14.01,2013-04-29 03:24:00,
2013-04-28 22:26:00,56.7,54.4,27.11,South,182,0.0,0.0,92,0.00,,---,2.01,VWS V14.01,2013-04-29 03:26:00,
2013-04-28 22:27:00,56.7,54.4,27.11,South,182,0.0,0.0,92,0.00,,---,2.01,VWS V14.01,2013-04-29 03:27:00,
2013-04-28 22:29:00,56.7,54.4,27.11,South,182,0.0,0.0,92,0.00,,---,2.01,VWS V14.01,2013-04-29 03:29:00,
2013-04-28 22:31:00,56.7,54.4,27.11,SSE,160,0.0,0.0,92,0.00,,---,2.01,VWS V14.01,2013-04-29 03:31:00,
2013-04-28 22:32:00,56.7,54.4,27.11,South,172,3.1,3.1,92,0.00,,---,2.01,VWS V14.01,2013-04-29 03:32:00,
2013-04-28 22:34:00,56.7,54.4,27.11,South,172,3.1,3.1,92,0.00,,---,2.01,VWS V14.01,2013-04-29 03:34:00,
2013-04-28 22:35:00,56.7,54.4,27.11,SSE,164,0.0,0.0,92,0.00,,---,2.01,VWS V14.01,2013-04-29 03:35:00,
2013-04-28 22:37:00,56.7,54.4,27.11,SW,232,0.0,0.0,92,0.00,,---,2.01,VWS V14.01,2013-04-29 03:37:00,
2013-04-28 22:38:00,56.7,54.4,27.11,South,182,2.7,2.7,92,0.00,,---,2.01,VWS V14.01,2013-04-29 03:38:00,
2013-04-28 22:39:00,56.7,54.4,27.11,South,182,2.7,2.7,92,0.00,,---,2.01,VWS V14.01,2013-04-29 03:39:00,
2013-04-28 22:40:00,56.7,54.4,27.11,SSE,167,0.0,2.7,92,0.00,,---,2.01,VWS V14.01,2013-04-29 03:40:00,
2013-04-28 22:42:00,56.7,54.4,27.11,South,178,3.1,3.1,92,0.00,,---,2.01,VWS V14.01,2013-04-29 03:42:00,
2013-04-28 22:43:00,56.7,54.4,27.08,South,178,3.1,3.1,92,0.00,,---,2.01,VWS V14.01,2013-04-29 03:43:00,
2013-04-28 22:44:00,56.5,54.2,27.08,South,178,3.1,3.1,92,0.00,,---,2.01,VWS V14.01,2013-04-29 03:44:00,
2013-04-28 22:45:00,56.5,54.2,27.08,South,178,3.1,3.1,92,0.00,,---,2.01,VWS V14.01,2013-04-29 03:45:00,
2013-04-28 22:47:00,56.5,54.2,27.08,South,178,3.1,3.1,92,0.00,,---,2.01,VWS V14.01,2013-04-29 03:47:00,
2013-04-28 22:48:00,56.5,54.2,27.08,South,170,0.0,0.0,92,0.00,,---,2.01,VWS V14.01,2013-04-29 03:48:00,
2013-04-28 22:49:00,56.5,54.2,27.08,South,170,0.0,0.0,92,0.00,,---,2.01,VWS V14.01,2013-04-29 03:49:00,
2013-04-28 22:50:00,56.5,54.2,27.08,South,170,0.0,0.0,92,0.00,,---,2.01,VWS V14.01,2013-04-29 03:50:00,
2013-04-28 22:52:00,56.5,54.2,27.08,South,170,2.2,2.2,92,0.00,,---,2.01,VWS V14.01,2013-04-29 03:52:00,
2013-04-28 22:53:00,56.5,54.2,27.08,South,170,2.2,2.2,92,0.00,,---,2.01,VWS V14.01,2013-04-29 03:53:00,
2013-04-28 22:54:00,56.5,54.2,27.08,South,170,2.2,2.2,92,0.00,,---,2.01,VWS V14.01,2013-04-29 03:54:00,
2013-04-28 22:55:00,56.5,54.2,27.08,SSE,164,2.7,2.7,92,0.00,,---,2.01,VWS V14.01,2013-04-29 03:55:00,
2013-04-28 22:56:00,56.5,54.2,27.08,SSE,164,2.7,2.7,92,0.00,,---,2.01,VWS V14.01,2013-04-29 03:56:00,
2013-04-28 22:57:00,56.5,54.2,27.08,SSE,163,0.0,0.0,92,0.00,,---,2.01,VWS V14.01,2013-04-29 03:57:00,
2013-04-28 22:58:00,56.5,54.2,27.08,SSE,163,0.0,0.0,92,0.00,,---,2.01,VWS V14.01,2013-04-29 03:58:00,
2013-04-28 22:59:00,56.5,54.2,27.08,SSE,165,3.1,3.1,92,0.00,,---,2.01,VWS V14.01,2013-04-29 03:59:00,
2013-04-28 23:00:00,56.5,54.2,27.08,SSE,153,0.0,3.1,92,0.00,,---,0.00,VWS V14.01,2013-04-29 04:00:00,
2013-04-28 23:01:00,56.5,54.5,27.08,SSE,153,0.0,3.1,93,0.00,,---,0.00,VWS V14.01,2013-04-29 04:01:00,
2013-04-28 23:06:00,56.7,54.7,27.08,SSE,157,5.8,5.8,93,0.00,,---,0.00,VWS V14.01,2013-04-29 04:06:00,
2013-04-28 23:11:00,56.7,54.7,27.08,South,190,0.0,0.0,93,0.00,,---,0.00,VWS V14.01,2013-04-29 04:11:00,
2013-04-28 23:16:00,56.7,54.7,27.08,SSE,162,2.2,3.6,93,0.00,,---,0.00,VWS V14.01,2013-04-29 04:16:00,
2013-04-28 23:21:00,56.7,54.7,27.08,South,180,2.7,3.1,93,0.00,,---,0.00,VWS V14.01,2013-04-29 04:21:00,
2013-04-28 23:26:00,56.7,54.7,27.08,SSE,164,0.0,0.0,93,0.00,,---,0.00,VWS V14.01,2013-04-29 04:26:00,
2013-04-28 23:27:00,56.7,54.7,27.08,SSE,164,0.0,0.0,93,0.00,,---,0.00,VWS V14.01,2013-04-29 04:27:00,
2013-04-28 23:31:00,56.7,54.7,27.08,SE,141,2.7,2.7,93,0.00,,---,0.00,VWS V14.01,2013-04-29 04:31:00,
2013-04-28 23:32:00,56.7,54.7,27.08,South,184,2.7,2.7,93,0.00,,---,0.00,VWS V14.01,2013-04-29 04:32:00,
2013-04-28 23:36:00,56.7,54.7,27.08,South,178,0.0,0.0,93,0.00,,---,0.00,VWS V14.01,2013-04-29 04:36:00,
2013-04-28 23:37:00,56.7,54.7,27.08,South,178,0.0,0.0,93,0.00,,---,0.00,VWS V14.01,2013-04-29 04:37:00,
2013-04-28 23:41:00,56.7,54.7,27.05,SSE,168,0.0,0.0,93,0.00,,---,0.00,VWS V14.01,2013-04-29 04:41:00,
2013-04-28 23:42:00,56.7,54.7,27.05,ESE,123,0.0,0.0,93,0.00,,---,0.00,VWS V14.01,2013-04-29 04:42:00,
2013-04-28 23:46:00,56.7,54.7,27.05,ESE,123,0.0,0.0,93,0.00,,---,0.00,VWS V14.01,2013-04-29 04:46:00,
2013-04-28 23:47:00,56.7,54.7,27.05,ESE,123,0.0,0.0,93,0.00,,---,0.00,VWS V14.01,2013-04-29 04:47:00,
2013-04-28 23:51:00,56.7,54.7,27.05,ESE,123,0.0,0.0,93,0.00,,---,0.00,VWS V14.01,2013-04-29 04:51:00,
2013-04-28 23:52:00,56.7,54.7,27.05,ESE,123,0.0,0.0,93,0.00,,---,0.00,VWS V14.01,2013-04-29 04:52:00,
2013-04-28 23:56:00,56.7,54.7,27.05,South,173,0.0,3.1,93,0.00,,---,0.00,VWS V14.01,2013-04-29 04:56:00,
2013-04-28 23:57:00,56.7,54.7,27.05,South,173,0.0,3.1,93,0.00,,---,0.00,VWS V14.01,2013-04-29 04:57:00,